﻿<?xml version="1.0" encoding="utf-8"?><gpx creator="Garmin Desktop App" version="1.1" xsi:schemaLocation="http://www.topografix.com/GPX/1/1 http://www.topografix.com/GPX/1/1/gpx.xsd http://www.garmin.com/xmlschemas/WaypointExtension/v1 http://www8.garmin.com/xmlschemas/WaypointExtensionv1.xsd http://www.garmin.com/xmlschemas/TrackPointExtension/v1 http://www.garmin.com/xmlschemas/TrackPointExtensionv1.xsd http://www.garmin.com/xmlschemas/GpxExtensions/v3 http://www8.garmin.com/xmlschemas/GpxExtensionsv3.xsd http://www.garmin.com/xmlschemas/ActivityExtension/v1 http://www8.garmin.com/xmlschemas/ActivityExtensionv1.xsd http://www.garmin.com/xmlschemas/AdventuresExtensions/v1 http://www8.garmin.com/xmlschemas/AdventuresExtensionv1.xsd http://www.garmin.com/xmlschemas/PressureExtension/v1 http://www.garmin.com/xmlschemas/PressureExtensionv1.xsd http://www.garmin.com/xmlschemas/TripExtensions/v1 http://www.garmin.com/xmlschemas/TripExtensionsv1.xsd http://www.garmin.com/xmlschemas/TripMetaDataExtensions/v1 http://www.garmin.com/xmlschemas/TripMetaDataExtensionsv1.xsd http://www.garmin.com/xmlschemas/ViaPointTransportationModeExtensions/v1 http://www.garmin.com/xmlschemas/ViaPointTransportationModeExtensionsv1.xsd http://www.garmin.com/xmlschemas/CreationTimeExtension/v1 http://www.garmin.com/xmlschemas/CreationTimeExtensionsv1.xsd http://www.garmin.com/xmlschemas/AccelerationExtension/v1 http://www.garmin.com/xmlschemas/AccelerationExtensionv1.xsd http://www.garmin.com/xmlschemas/PowerExtension/v1 http://www.garmin.com/xmlschemas/PowerExtensionv1.xsd http://www.garmin.com/xmlschemas/VideoExtension/v1 http://www.garmin.com/xmlschemas/VideoExtensionv1.xsd" xmlns="http://www.topografix.com/GPX/1/1" xmlns:xsi="http://www.w3.org/2001/XMLSchema-instance" xmlns:wptx1="http://www.garmin.com/xmlschemas/WaypointExtension/v1" xmlns:gpxtrx="http://www.garmin.com/xmlschemas/GpxExtensions/v3" xmlns:gpxtpx="http://www.garmin.com/xmlschemas/TrackPointExtension/v1" xmlns:gpxx="http://www.garmin.com/xmlschemas/GpxExtensions/v3" xmlns:trp="http://www.garmin.com/xmlschemas/TripExtensions/v1" xmlns:adv="http://www.garmin.com/xmlschemas/AdventuresExtensions/v1" xmlns:prs="http://www.garmin.com/xmlschemas/PressureExtension/v1" xmlns:tmd="http://www.garmin.com/xmlschemas/TripMetaDataExtensions/v1" xmlns:vptm="http://www.garmin.com/xmlschemas/ViaPointTransportationModeExtensions/v1" xmlns:ctx="http://www.garmin.com/xmlschemas/CreationTimeExtension/v1" xmlns:gpxacc="http://www.garmin.com/xmlschemas/AccelerationExtension/v1" xmlns:gpxpx="http://www.garmin.com/xmlschemas/PowerExtension/v1" xmlns:vidx1="http://www.garmin.com/xmlschemas/VideoExtension/v1">

  <metadata>
    <link href="http://www.garmin.com">
      <text>Garmin International</text>
    </link>
    <time>2014-05-31T16:19:30Z</time>
    <bounds maxlat="46.807014439254999" maxlon="15.922650592401624" minlat="46.781815756112337" minlon="15.887921852990985" />
  </metadata>

  <trk>
    <name>Kulinarikweg</name>
    <extensions>
      <gpxx:TrackExtension>
        <gpxx:DisplayColor>Blue</gpxx:DisplayColor>
      </gpxx:TrackExtension>
    </extensions>
    <trkseg>
      <trkpt lat="46.787567334249616" lon="15.894700633361936">
        <ele>243.350830078125</ele>
        <time>2010-10-10T10:42:21Z</time>
      </trkpt>
      <trkpt lat="46.787588456645608" lon="15.894692586734891">
        <ele>247.196044921875</ele>
        <time>2010-10-10T10:42:37Z</time>
      </trkpt>
      <trkpt lat="46.78757973946631" lon="15.894683534279466">
        <ele>249.1187744140625</ele>
        <time>2010-10-10T10:42:43Z</time>
      </trkpt>
      <trkpt lat="46.78750547580421" lon="15.894682947546244">
        <ele>252.4833984375</ele>
        <time>2010-10-10T10:42:53Z</time>
      </trkpt>
      <trkpt lat="46.787474462762475" lon="15.894682193174958">
        <ele>253.9254150390625</ele>
        <time>2010-10-10T10:42:56Z</time>
      </trkpt>
      <trkpt lat="46.787465745583177" lon="15.894693257287145">
        <ele>256.3287353515625</ele>
        <time>2010-10-10T10:43:00Z</time>
      </trkpt>
      <trkpt lat="46.787455519661307" lon="15.894689066335559">
        <ele>257.770751953125</ele>
        <time>2010-10-10T10:43:03Z</time>
      </trkpt>
      <trkpt lat="46.787504721432924" lon="15.894674062728882">
        <ele>260.654541015625</ele>
        <time>2010-10-10T10:43:11Z</time>
      </trkpt>
      <trkpt lat="46.787484437227249" lon="15.894684372469783">
        <ele>261.615966796875</ele>
        <time>2010-10-10T10:43:15Z</time>
      </trkpt>
      <trkpt lat="46.787539087235928" lon="15.894648749381304">
        <ele>262.5771484375</ele>
        <time>2010-10-10T10:43:28Z</time>
      </trkpt>
      <trkpt lat="46.787599436938763" lon="15.894707841798663">
        <ele>263.53857421875</ele>
        <time>2010-10-10T10:43:48Z</time>
      </trkpt>
      <trkpt lat="46.787485862150788" lon="15.894703483209014">
        <ele>263.53857421875</ele>
        <time>2010-10-10T10:44:47Z</time>
      </trkpt>
      <trkpt lat="46.78733884356916" lon="15.894741034135222">
        <ele>263.057861328125</ele>
        <time>2010-10-10T10:44:58Z</time>
      </trkpt>
      <trkpt lat="46.787249073386192" lon="15.894751092419028">
        <ele>263.057861328125</ele>
        <time>2010-10-10T10:45:05Z</time>
      </trkpt>
      <trkpt lat="46.787198195233941" lon="15.894730053842068">
        <ele>263.057861328125</ele>
        <time>2010-10-10T10:45:08Z</time>
      </trkpt>
      <trkpt lat="46.78713072091341" lon="15.894700549542904">
        <ele>263.057861328125</ele>
        <time>2010-10-10T10:45:15Z</time>
      </trkpt>
      <trkpt lat="46.787120159715414" lon="15.894636679440737">
        <ele>262.5771484375</ele>
        <time>2010-10-10T10:45:21Z</time>
      </trkpt>
      <trkpt lat="46.786965178325772" lon="15.894717397168279">
        <ele>262.5771484375</ele>
        <time>2010-10-10T10:45:37Z</time>
      </trkpt>
      <trkpt lat="46.786719337105751" lon="15.894802557304502">
        <ele>262.5771484375</ele>
        <time>2010-10-10T10:45:56Z</time>
      </trkpt>
      <trkpt lat="46.786472992971539" lon="15.894884364679456">
        <ele>263.057861328125</ele>
        <time>2010-10-10T10:46:16Z</time>
      </trkpt>
      <trkpt lat="46.786251375451684" lon="15.894908672198653">
        <ele>263.057861328125</ele>
        <time>2010-10-10T10:46:34Z</time>
      </trkpt>
      <trkpt lat="46.785972258076072" lon="15.894943624734879">
        <ele>264.019287109375</ele>
        <time>2010-10-10T10:46:57Z</time>
      </trkpt>
      <trkpt lat="46.786040067672729" lon="15.894948737695813">
        <ele>262.5771484375</ele>
        <time>2010-10-10T10:47:24Z</time>
      </trkpt>
      <trkpt lat="46.786143081262708" lon="15.894955946132541">
        <ele>262.5771484375</ele>
        <time>2010-10-10T10:47:40Z</time>
      </trkpt>
      <trkpt lat="46.786164622753859" lon="15.895023755729198">
        <ele>263.057861328125</ele>
        <time>2010-10-10T10:47:58Z</time>
      </trkpt>
      <trkpt lat="46.786184320226312" lon="15.894944546744227">
        <ele>262.0965576171875</ele>
        <time>2010-10-10T10:48:16Z</time>
      </trkpt>
      <trkpt lat="46.786199826747179" lon="15.894933734089136">
        <ele>262.0965576171875</ele>
        <time>2010-10-10T10:48:40Z</time>
      </trkpt>
      <trkpt lat="46.786282639950514" lon="15.894909678027034">
        <ele>262.5771484375</ele>
        <time>2010-10-10T10:49:03Z</time>
      </trkpt>
      <trkpt lat="46.786377355456352" lon="15.894881179556251">
        <ele>262.0965576171875</ele>
        <time>2010-10-10T10:49:22Z</time>
      </trkpt>
      <trkpt lat="46.786463186144829" lon="15.894859470427036">
        <ele>262.0965576171875</ele>
        <time>2010-10-10T10:49:42Z</time>
      </trkpt>
      <trkpt lat="46.786418342962861" lon="15.894863661378622">
        <ele>261.615966796875</ele>
        <time>2010-10-10T10:49:58Z</time>
      </trkpt>
      <trkpt lat="46.786118438467383" lon="15.894931722432375">
        <ele>262.0965576171875</ele>
        <time>2010-10-10T10:50:20Z</time>
      </trkpt>
      <trkpt lat="46.785705294460058" lon="15.894968099892139">
        <ele>262.5771484375</ele>
        <time>2010-10-10T10:50:49Z</time>
      </trkpt>
      <trkpt lat="46.785253593698144" lon="15.894951336085796">
        <ele>262.5771484375</ele>
        <time>2010-10-10T10:51:21Z</time>
      </trkpt>
      <trkpt lat="46.784873474389315" lon="15.894931638613343">
        <ele>262.5771484375</ele>
        <time>2010-10-10T10:51:49Z</time>
      </trkpt>
      <trkpt lat="46.784555297344923" lon="15.894919149577618">
        <ele>262.5771484375</ele>
        <time>2010-10-10T10:52:12Z</time>
      </trkpt>
      <trkpt lat="46.784239131957293" lon="15.894940188154578">
        <ele>262.0965576171875</ele>
        <time>2010-10-10T10:52:38Z</time>
      </trkpt>
      <trkpt lat="46.784235779196024" lon="15.8952896296978">
        <ele>262.5771484375</ele>
        <time>2010-10-10T10:52:57Z</time>
      </trkpt>
      <trkpt lat="46.78424583747983" lon="15.895667234435678">
        <ele>263.53857421875</ele>
        <time>2010-10-10T10:53:19Z</time>
      </trkpt>
      <trkpt lat="46.78427567705512" lon="15.896000750362873">
        <ele>265.94189453125</ele>
        <time>2010-10-10T10:53:41Z</time>
      </trkpt>
      <trkpt lat="46.78430643863976" lon="15.89636754244566">
        <ele>267.3839111328125</ele>
        <time>2010-10-10T10:54:05Z</time>
      </trkpt>
      <trkpt lat="46.784320520237088" lon="15.896706590428948">
        <ele>270.2677001953125</ele>
        <time>2010-10-10T10:54:27Z</time>
      </trkpt>
      <trkpt lat="46.784341894090176" lon="15.897056870162487">
        <ele>271.2291259765625</ele>
        <time>2010-10-10T10:54:49Z</time>
      </trkpt>
      <trkpt lat="46.784327141940594" lon="15.897435648366809">
        <ele>271.709716796875</ele>
        <time>2010-10-10T10:55:12Z</time>
      </trkpt>
      <trkpt lat="46.784304929897189" lon="15.897768493741751">
        <ele>271.2291259765625</ele>
        <time>2010-10-10T10:55:32Z</time>
      </trkpt>
      <trkpt lat="46.784256063401699" lon="15.898124556988478">
        <ele>271.2291259765625</ele>
        <time>2010-10-10T10:55:53Z</time>
      </trkpt>
      <trkpt lat="46.784226642921567" lon="15.89842027053237">
        <ele>270.7484130859375</ele>
        <time>2010-10-10T10:56:13Z</time>
      </trkpt>
      <trkpt lat="46.784184481948614" lon="15.898820171132684">
        <ele>271.709716796875</ele>
        <time>2010-10-10T10:56:39Z</time>
      </trkpt>
      <trkpt lat="46.784139471128583" lon="15.89924362488091">
        <ele>272.1904296875</ele>
        <time>2010-10-10T10:57:05Z</time>
      </trkpt>
      <trkpt lat="46.784103848040104" lon="15.899611925706267">
        <ele>271.709716796875</ele>
        <time>2010-10-10T10:57:27Z</time>
      </trkpt>
      <trkpt lat="46.784071661531925" lon="15.899888863787055">
        <ele>273.15185546875</ele>
        <time>2010-10-10T10:57:46Z</time>
      </trkpt>
      <trkpt lat="46.783994548022747" lon="15.900079216808081">
        <ele>273.6324462890625</ele>
        <time>2010-10-10T10:58:01Z</time>
      </trkpt>
      <trkpt lat="46.783888265490532" lon="15.900282142683864">
        <ele>273.15185546875</ele>
        <time>2010-10-10T10:58:17Z</time>
      </trkpt>
      <trkpt lat="46.783931935206056" lon="15.900434525683522">
        <ele>273.6324462890625</ele>
        <time>2010-10-10T10:58:30Z</time>
      </trkpt>
      <trkpt lat="46.783951381221414" lon="15.900446260347962">
        <ele>273.6324462890625</ele>
        <time>2010-10-10T10:58:36Z</time>
      </trkpt>
      <trkpt lat="46.783987926319242" lon="15.900706769898534">
        <ele>274.113037109375</ele>
        <time>2010-10-10T10:58:53Z</time>
      </trkpt>
      <trkpt lat="46.784021370112896" lon="15.900951772928238">
        <ele>274.59375</ele>
        <time>2010-10-10T10:59:08Z</time>
      </trkpt>
      <trkpt lat="46.784013658761978" lon="15.900970632210374">
        <ele>274.59375</ele>
        <time>2010-10-10T10:59:09Z</time>
      </trkpt>
      <trkpt lat="46.783932857215405" lon="15.901229046285152">
        <ele>275.5550537109375</ele>
        <time>2010-10-10T10:59:24Z</time>
      </trkpt>
      <trkpt lat="46.783959176391363" lon="15.901390230283141">
        <ele>276.9970703125</ele>
        <time>2010-10-10T10:59:39Z</time>
      </trkpt>
      <trkpt lat="46.783917937427759" lon="15.901542278006673">
        <ele>276.516357421875</ele>
        <time>2010-10-10T10:59:51Z</time>
      </trkpt>
      <trkpt lat="46.783871836960316" lon="15.901495171710849">
        <ele>276.03564453125</ele>
        <time>2010-10-10T11:00:06Z</time>
      </trkpt>
      <trkpt lat="46.783794052898884" lon="15.901524173095822">
        <ele>275.074462890625</ele>
        <time>2010-10-10T11:00:21Z</time>
      </trkpt>
      <trkpt lat="46.783707048743963" lon="15.901575889438391">
        <ele>276.03564453125</ele>
        <time>2010-10-10T11:00:37Z</time>
      </trkpt>
      <trkpt lat="46.783775445073843" lon="15.901837991550565">
        <ele>276.516357421875</ele>
        <time>2010-10-10T11:00:55Z</time>
      </trkpt>
      <trkpt lat="46.783868316560984" lon="15.902086934074759">
        <ele>277.4776611328125</ele>
        <time>2010-10-10T11:01:14Z</time>
      </trkpt>
      <trkpt lat="46.78394878283143" lon="15.902365129441023">
        <ele>277.958251953125</ele>
        <time>2010-10-10T11:01:34Z</time>
      </trkpt>
      <trkpt lat="46.784033440053463" lon="15.902656568214297">
        <ele>279.4002685546875</ele>
        <time>2010-10-10T11:01:55Z</time>
      </trkpt>
      <trkpt lat="46.784119941294193" lon="15.902877682819963">
        <ele>280.3616943359375</ele>
        <time>2010-10-10T11:02:11Z</time>
      </trkpt>
      <trkpt lat="46.784222619608045" lon="15.903088990598917">
        <ele>282.2843017578125</ele>
        <time>2010-10-10T11:02:25Z</time>
      </trkpt>
      <trkpt lat="46.784272324293852" lon="15.903347488492727">
        <ele>283.24560546875</ele>
        <time>2010-10-10T11:02:42Z</time>
      </trkpt>
      <trkpt lat="46.784341894090176" lon="15.903555527329445">
        <ele>284.6876220703125</ele>
        <time>2010-10-10T11:02:57Z</time>
      </trkpt>
      <trkpt lat="46.784404590725899" lon="15.903732217848301">
        <ele>285.6488037109375</ele>
        <time>2010-10-10T11:03:09Z</time>
      </trkpt>
      <trkpt lat="46.784409368410707" lon="15.903762392699718">
        <ele>285.6488037109375</ele>
        <time>2010-10-10T11:03:11Z</time>
      </trkpt>
      <trkpt lat="46.784365950152278" lon="15.903857862576842">
        <ele>286.6102294921875</ele>
        <time>2010-10-10T11:03:17Z</time>
      </trkpt>
      <trkpt lat="46.784168053418398" lon="15.904032289981842">
        <ele>286.6102294921875</ele>
        <time>2010-10-10T11:03:35Z</time>
      </trkpt>
      <trkpt lat="46.783983651548624" lon="15.90413723140955">
        <ele>286.6102294921875</ele>
        <time>2010-10-10T11:03:53Z</time>
      </trkpt>
      <trkpt lat="46.783810732886195" lon="15.904232617467642">
        <ele>286.6102294921875</ele>
        <time>2010-10-10T11:04:09Z</time>
      </trkpt>
      <trkpt lat="46.783642340451479" lon="15.904350550845265">
        <ele>287.0908203125</ele>
        <time>2010-10-10T11:04:24Z</time>
      </trkpt>
      <trkpt lat="46.783422483131289" lon="15.90449539013207">
        <ele>287.5714111328125</ele>
        <time>2010-10-10T11:04:45Z</time>
      </trkpt>
      <trkpt lat="46.783282924443483" lon="15.904628578573465">
        <ele>289.494140625</ele>
        <time>2010-10-10T11:04:58Z</time>
      </trkpt>
      <trkpt lat="46.783101791515946" lon="15.90490534901619">
        <ele>289.974853515625</ele>
        <time>2010-10-10T11:05:20Z</time>
      </trkpt>
      <trkpt lat="46.782953683286905" lon="15.905244899913669">
        <ele>290.9361572265625</ele>
        <time>2010-10-10T11:05:44Z</time>
      </trkpt>
      <trkpt lat="46.782831475138664" lon="15.905553521588445">
        <ele>292.8587646484375</ele>
        <time>2010-10-10T11:06:06Z</time>
      </trkpt>
      <trkpt lat="46.782679259777069" lon="15.905895587056875">
        <ele>296.2235107421875</ele>
        <time>2010-10-10T11:06:31Z</time>
      </trkpt>
      <trkpt lat="46.78254053927958" lon="15.906127849593759">
        <ele>299.1072998046875</ele>
        <time>2010-10-10T11:06:50Z</time>
      </trkpt>
      <trkpt lat="46.782347923144698" lon="15.90635466389358">
        <ele>301.5106201171875</ele>
        <time>2010-10-10T11:07:13Z</time>
      </trkpt>
      <trkpt lat="46.782145416364074" lon="15.906552895903587">
        <ele>302.471923828125</ele>
        <time>2010-10-10T11:07:36Z</time>
      </trkpt>
      <trkpt lat="46.781938131898642" lon="15.906838551163673">
        <ele>304.875244140625</ele>
        <time>2010-10-10T11:08:02Z</time>
      </trkpt>
      <trkpt lat="46.781834028661251" lon="15.907123787328601">
        <ele>308.2398681640625</ele>
        <time>2010-10-10T11:08:23Z</time>
      </trkpt>
      <trkpt lat="46.781815756112337" lon="15.907405335456133">
        <ele>311.123779296875</ele>
        <time>2010-10-10T11:08:46Z</time>
      </trkpt>
      <trkpt lat="46.781844422221184" lon="15.907665928825736">
        <ele>314.0078125</ele>
        <time>2010-10-10T11:09:09Z</time>
      </trkpt>
      <trkpt lat="46.781861269846559" lon="15.907776486128569">
        <ele>314.9691162109375</ele>
        <time>2010-10-10T11:09:25Z</time>
      </trkpt>
      <trkpt lat="46.781900497153401" lon="15.908008497208357">
        <ele>317.85302734375</ele>
        <time>2010-10-10T11:09:44Z</time>
      </trkpt>
      <trkpt lat="46.781926061958075" lon="15.908223325386643">
        <ele>319.775634765625</ele>
        <time>2010-10-10T11:10:03Z</time>
      </trkpt>
      <trkpt lat="46.781973671168089" lon="15.908470340073109">
        <ele>322.65966796875</ele>
        <time>2010-10-10T11:10:23Z</time>
      </trkpt>
      <trkpt lat="46.782011976465583" lon="15.90873864479363">
        <ele>325.06298828125</ele>
        <time>2010-10-10T11:10:45Z</time>
      </trkpt>
      <trkpt lat="46.782019017264247" lon="15.908848866820335">
        <ele>326.5048828125</ele>
        <time>2010-10-10T11:11:02Z</time>
      </trkpt>
      <trkpt lat="46.782036451622844" lon="15.908861858770251">
        <ele>326.5048828125</ele>
        <time>2010-10-10T11:11:26Z</time>
      </trkpt>
      <trkpt lat="46.782059082761407" lon="15.909058582037687">
        <ele>329.8695068359375</ele>
        <time>2010-10-10T11:11:44Z</time>
      </trkpt>
      <trkpt lat="46.78207928314805" lon="15.909257233142853">
        <ele>331.3115234375</ele>
        <time>2010-10-10T11:12:06Z</time>
      </trkpt>
      <trkpt lat="46.782106775790453" lon="15.909530567005277">
        <ele>333.7147216796875</ele>
        <time>2010-10-10T11:12:29Z</time>
      </trkpt>
      <trkpt lat="46.782136028632522" lon="15.909765427932143">
        <ele>336.1181640625</ele>
        <time>2010-10-10T11:12:50Z</time>
      </trkpt>
      <trkpt lat="46.782174669206142" lon="15.909827286377549">
        <ele>336.1181640625</ele>
        <time>2010-10-10T11:12:57Z</time>
      </trkpt>
      <trkpt lat="46.782261757180095" lon="15.90981999412179">
        <ele>336.1181640625</ele>
        <time>2010-10-10T11:13:14Z</time>
      </trkpt>
      <trkpt lat="46.782288579270244" lon="15.90981219895184">
        <ele>336.1181640625</ele>
        <time>2010-10-10T11:13:25Z</time>
      </trkpt>
      <trkpt lat="46.782331243157387" lon="15.909820748493075">
        <ele>336.598876953125</ele>
        <time>2010-10-10T11:13:29Z</time>
      </trkpt>
      <trkpt lat="46.782578425481915" lon="15.909927450120449">
        <ele>335.6373291015625</ele>
        <time>2010-10-10T11:13:52Z</time>
      </trkpt>
      <trkpt lat="46.782747320830822" lon="15.909996936097741">
        <ele>336.1181640625</ele>
        <time>2010-10-10T11:14:09Z</time>
      </trkpt>
      <trkpt lat="46.783000454306602" lon="15.910046137869358">
        <ele>335.6373291015625</ele>
        <time>2010-10-10T11:14:32Z</time>
      </trkpt>
      <trkpt lat="46.78325342014432" lon="15.91011319309473">
        <ele>335.6373291015625</ele>
        <time>2010-10-10T11:14:54Z</time>
      </trkpt>
      <trkpt lat="46.783504374325275" lon="15.910148732364178">
        <ele>335.15673828125</ele>
        <time>2010-10-10T11:15:17Z</time>
      </trkpt>
      <trkpt lat="46.783546032384038" lon="15.910163819789886">
        <ele>335.6373291015625</ele>
        <time>2010-10-10T11:15:29Z</time>
      </trkpt>
      <trkpt lat="46.783568663522601" lon="15.910218134522438">
        <ele>335.15673828125</ele>
        <time>2010-10-10T11:15:33Z</time>
      </trkpt>
      <trkpt lat="46.783880889415741" lon="15.91033942066133">
        <ele>335.15673828125</ele>
        <time>2010-10-10T11:16:01Z</time>
      </trkpt>
      <trkpt lat="46.784182051196694" lon="15.910444278270006">
        <ele>333.234130859375</ele>
        <time>2010-10-10T11:16:29Z</time>
      </trkpt>
      <trkpt lat="46.784475669264793" lon="15.910535724833608">
        <ele>333.7147216796875</ele>
        <time>2010-10-10T11:16:55Z</time>
      </trkpt>
      <trkpt lat="46.784766688942909" lon="15.910613173618913">
        <ele>333.234130859375</ele>
        <time>2010-10-10T11:17:21Z</time>
      </trkpt>
      <trkpt lat="46.785041447728872" lon="15.910709062591195">
        <ele>333.234130859375</ele>
        <time>2010-10-10T11:17:45Z</time>
      </trkpt>
      <trkpt lat="46.785327857360244" lon="15.910791791975498">
        <ele>332.7535400390625</ele>
        <time>2010-10-10T11:18:10Z</time>
      </trkpt>
      <trkpt lat="46.785610998049378" lon="15.910866474732757">
        <ele>332.7535400390625</ele>
        <time>2010-10-10T11:18:35Z</time>
      </trkpt>
      <trkpt lat="46.785933785140514" lon="15.910931434482336">
        <ele>332.2728271484375</ele>
        <time>2010-10-10T11:19:02Z</time>
      </trkpt>
      <trkpt lat="46.786190271377563" lon="15.910911485552788">
        <ele>332.7535400390625</ele>
        <time>2010-10-10T11:19:23Z</time>
      </trkpt>
      <trkpt lat="46.786505179479718" lon="15.91084904037416">
        <ele>332.7535400390625</ele>
        <time>2010-10-10T11:19:50Z</time>
      </trkpt>
      <trkpt lat="46.786851352080703" lon="15.910858931019902">
        <ele>332.2728271484375</ele>
        <time>2010-10-10T11:20:19Z</time>
      </trkpt>
      <trkpt lat="46.787073221057653" lon="15.910826493054628">
        <ele>332.7535400390625</ele>
        <time>2010-10-10T11:20:40Z</time>
      </trkpt>
      <trkpt lat="46.787067521363497" lon="15.910778129473329">
        <ele>332.7535400390625</ele>
        <time>2010-10-10T11:20:44Z</time>
      </trkpt>
      <trkpt lat="46.78700365126133" lon="15.910681821405888">
        <ele>334.6761474609375</ele>
        <time>2010-10-10T11:21:06Z</time>
      </trkpt>
      <trkpt lat="46.786997448652983" lon="15.910700764507055">
        <ele>335.15673828125</ele>
        <time>2010-10-10T11:21:20Z</time>
      </trkpt>
      <trkpt lat="46.787005243822932" lon="15.910689951851964">
        <ele>333.7147216796875</ele>
        <time>2010-10-10T11:21:41Z</time>
      </trkpt>
      <trkpt lat="46.787010692059994" lon="15.910696238279343">
        <ele>333.7147216796875</ele>
        <time>2010-10-10T11:21:42Z</time>
      </trkpt>
      <trkpt lat="46.787130553275347" lon="15.9108314383775">
        <ele>333.234130859375</ele>
        <time>2010-10-10T11:22:00Z</time>
      </trkpt>
      <trkpt lat="46.787140695378184" lon="15.910834958776832">
        <ele>332.7535400390625</ele>
        <time>2010-10-10T11:22:29Z</time>
      </trkpt>
      <trkpt lat="46.787154525518417" lon="15.910848956555128">
        <ele>332.7535400390625</ele>
        <time>2010-10-10T11:22:37Z</time>
      </trkpt>
      <trkpt lat="46.787166930735111" lon="15.910913245752454">
        <ele>333.234130859375</ele>
        <time>2010-10-10T11:22:41Z</time>
      </trkpt>
      <trkpt lat="46.787068778648973" lon="15.911198230460286">
        <ele>333.234130859375</ele>
        <time>2010-10-10T11:23:00Z</time>
      </trkpt>
      <trkpt lat="46.78698068484664" lon="15.911552868783474">
        <ele>333.234130859375</ele>
        <time>2010-10-10T11:23:22Z</time>
      </trkpt>
      <trkpt lat="46.786818327382207" lon="15.911860233172774">
        <ele>332.7535400390625</ele>
        <time>2010-10-10T11:23:44Z</time>
      </trkpt>
      <trkpt lat="46.786656389012933" lon="15.91211705468595">
        <ele>333.234130859375</ele>
        <time>2010-10-10T11:24:03Z</time>
      </trkpt>
      <trkpt lat="46.786427227780223" lon="15.912412432953715">
        <ele>333.7147216796875</ele>
        <time>2010-10-10T11:24:27Z</time>
      </trkpt>
      <trkpt lat="46.786272749304771" lon="15.912708397954702">
        <ele>334.1954345703125</ele>
        <time>2010-10-10T11:24:49Z</time>
      </trkpt>
      <trkpt lat="46.786269983276725" lon="15.912780063226819">
        <ele>334.1954345703125</ele>
        <time>2010-10-10T11:24:54Z</time>
      </trkpt>
      <trkpt lat="46.786375343799591" lon="15.913100251927972">
        <ele>335.6373291015625</ele>
        <time>2010-10-10T11:25:18Z</time>
      </trkpt>
      <trkpt lat="46.786465365439653" lon="15.913356235250831">
        <ele>338.521484375</ele>
        <time>2010-10-10T11:25:36Z</time>
      </trkpt>
      <trkpt lat="46.786497049033642" lon="15.913613978773355">
        <ele>340.9246826171875</ele>
        <time>2010-10-10T11:25:56Z</time>
      </trkpt>
      <trkpt lat="46.786530576646328" lon="15.913866860792041">
        <ele>343.80859375</ele>
        <time>2010-10-10T11:26:16Z</time>
      </trkpt>
      <trkpt lat="46.786575671285391" lon="15.914147235453129">
        <ele>346.2120361328125</ele>
        <time>2010-10-10T11:26:37Z</time>
      </trkpt>
      <trkpt lat="46.786614479497075" lon="15.914435321465135">
        <ele>347.6539306640625</ele>
        <time>2010-10-10T11:26:57Z</time>
      </trkpt>
      <trkpt lat="46.786637445911765" lon="15.914745284244418">
        <ele>350.537841796875</ele>
        <time>2010-10-10T11:27:18Z</time>
      </trkpt>
      <trkpt lat="46.786636188626289" lon="15.9150864277035">
        <ele>352.941162109375</ele>
        <time>2010-10-10T11:27:40Z</time>
      </trkpt>
      <trkpt lat="46.786625627428293" lon="15.915419775992632">
        <ele>354.86376953125</ele>
        <time>2010-10-10T11:28:03Z</time>
      </trkpt>
      <trkpt lat="46.786605846136808" lon="15.915718339383602">
        <ele>357.747802734375</ele>
        <time>2010-10-10T11:28:24Z</time>
      </trkpt>
      <trkpt lat="46.786583131179214" lon="15.915968371555209">
        <ele>358.708984375</ele>
        <time>2010-10-10T11:28:42Z</time>
      </trkpt>
      <trkpt lat="46.786576844751835" lon="15.916218655183911">
        <ele>361.5931396484375</ele>
        <time>2010-10-10T11:29:00Z</time>
      </trkpt>
      <trkpt lat="46.786679355427623" lon="15.91640037484467">
        <ele>363.0350341796875</ele>
        <time>2010-10-10T11:29:16Z</time>
      </trkpt>
      <trkpt lat="46.786688575521111" lon="15.916414372622967">
        <ele>363.5157470703125</ele>
        <time>2010-10-10T11:29:18Z</time>
      </trkpt>
      <trkpt lat="46.78680332377553" lon="15.916486289352179">
        <ele>364.9576416015625</ele>
        <time>2010-10-10T11:29:33Z</time>
      </trkpt>
      <trkpt lat="46.786819584667683" lon="15.91646826826036">
        <ele>365.9189453125</ele>
        <time>2010-10-10T11:29:52Z</time>
      </trkpt>
      <trkpt lat="46.786833833903074" lon="15.916439350694418">
        <ele>365.4383544921875</ele>
        <time>2010-10-10T11:30:07Z</time>
      </trkpt>
      <trkpt lat="46.786799216642976" lon="15.916430046781898">
        <ele>365.9189453125</ele>
        <time>2010-10-10T11:30:34Z</time>
      </trkpt>
      <trkpt lat="46.786853531375527" lon="15.916394926607609">
        <ele>365.9189453125</ele>
        <time>2010-10-10T11:30:56Z</time>
      </trkpt>
      <trkpt lat="46.786840371787548" lon="15.916473381221294">
        <ele>366.3995361328125</ele>
        <time>2010-10-10T11:31:15Z</time>
      </trkpt>
      <trkpt lat="46.786892339587212" lon="15.916507160291076">
        <ele>366.3995361328125</ele>
        <time>2010-10-10T11:31:31Z</time>
      </trkpt>
      <trkpt lat="46.786992084234953" lon="15.916577987372875">
        <ele>367.841552734375</ele>
        <time>2010-10-10T11:31:45Z</time>
      </trkpt>
      <trkpt lat="46.7869982868433" lon="15.916586285457015">
        <ele>369.7642822265625</ele>
        <time>2010-10-10T11:31:47Z</time>
      </trkpt>
      <trkpt lat="46.787109766155481" lon="15.916659962385893">
        <ele>372.16748046875</ele>
        <time>2010-10-10T11:32:04Z</time>
      </trkpt>
      <trkpt lat="46.78722744807601" lon="15.91680052690208">
        <ele>373.12890625</ele>
        <time>2010-10-10T11:32:17Z</time>
      </trkpt>
      <trkpt lat="46.787294251844287" lon="15.91691586188972">
        <ele>375.051513671875</ele>
        <time>2010-10-10T11:32:32Z</time>
      </trkpt>
      <trkpt lat="46.787377735599875" lon="15.917037148028612">
        <ele>376.4935302734375</ele>
        <time>2010-10-10T11:32:45Z</time>
      </trkpt>
      <trkpt lat="46.787424087524414" lon="15.917233536019921">
        <ele>376.4935302734375</ele>
        <time>2010-10-10T11:32:59Z</time>
      </trkpt>
      <trkpt lat="46.787564232945442" lon="15.917502678930759">
        <ele>376.4935302734375</ele>
        <time>2010-10-10T11:33:17Z</time>
      </trkpt>
      <trkpt lat="46.787628941237926" lon="15.917720189318061">
        <ele>378.4161376953125</ele>
        <time>2010-10-10T11:33:34Z</time>
      </trkpt>
      <trkpt lat="46.787687363103032" lon="15.917890258133411">
        <ele>378.4161376953125</ele>
        <time>2010-10-10T11:33:49Z</time>
      </trkpt>
      <trkpt lat="46.787779396399856" lon="15.918007269501686">
        <ele>378.8968505859375</ele>
        <time>2010-10-10T11:34:03Z</time>
      </trkpt>
      <trkpt lat="46.787843266502023" lon="15.918148420751095">
        <ele>378.4161376953125</ele>
        <time>2010-10-10T11:34:17Z</time>
      </trkpt>
      <trkpt lat="46.787957930937409" lon="15.918344724923372">
        <ele>377.9354248046875</ele>
        <time>2010-10-10T11:34:32Z</time>
      </trkpt>
      <trkpt lat="46.788056921213865" lon="15.918580172583461">
        <ele>377.454833984375</ele>
        <time>2010-10-10T11:34:48Z</time>
      </trkpt>
      <trkpt lat="46.78809723816812" lon="15.918636247515678">
        <ele>376.0128173828125</ele>
        <time>2010-10-10T11:34:55Z</time>
      </trkpt>
      <trkpt lat="46.788232186809182" lon="15.918828444555402">
        <ele>376.0128173828125</ele>
        <time>2010-10-10T11:35:12Z</time>
      </trkpt>
      <trkpt lat="46.788347270339727" lon="15.919014690443873">
        <ele>376.0128173828125</ele>
        <time>2010-10-10T11:35:27Z</time>
      </trkpt>
      <trkpt lat="46.788422456011176" lon="15.919234799221158">
        <ele>376.4935302734375</ele>
        <time>2010-10-10T11:35:42Z</time>
      </trkpt>
      <trkpt lat="46.788469981402159" lon="15.919275619089603">
        <ele>377.9354248046875</ele>
        <time>2010-10-10T11:35:54Z</time>
      </trkpt>
      <trkpt lat="46.788551956415176" lon="15.919367484748363">
        <ele>378.4161376953125</ele>
        <time>2010-10-10T11:36:07Z</time>
      </trkpt>
      <trkpt lat="46.788666872307658" lon="15.9194899443537">
        <ele>378.4161376953125</ele>
        <time>2010-10-10T11:36:22Z</time>
      </trkpt>
      <trkpt lat="46.788727976381779" lon="15.919638555496931">
        <ele>378.8968505859375</ele>
        <time>2010-10-10T11:36:33Z</time>
      </trkpt>
      <trkpt lat="46.788866193965077" lon="15.919773755595088">
        <ele>378.8968505859375</ele>
        <time>2010-10-10T11:36:48Z</time>
      </trkpt>
      <trkpt lat="46.788947163149714" lon="15.919855395331979">
        <ele>378.4161376953125</ele>
        <time>2010-10-10T11:37:02Z</time>
      </trkpt>
      <trkpt lat="46.789074065163732" lon="15.91994097456336">
        <ele>377.454833984375</ele>
        <time>2010-10-10T11:37:16Z</time>
      </trkpt>
      <trkpt lat="46.789204319939017" lon="15.919951284304261">
        <ele>377.9354248046875</ele>
        <time>2010-10-10T11:37:33Z</time>
      </trkpt>
      <trkpt lat="46.789249330759048" lon="15.919937621802092">
        <ele>377.9354248046875</ele>
        <time>2010-10-10T11:37:39Z</time>
      </trkpt>
      <trkpt lat="46.789327282458544" lon="15.919982632622123">
        <ele>378.8968505859375</ele>
        <time>2010-10-10T11:37:55Z</time>
      </trkpt>
      <trkpt lat="46.789378998801112" lon="15.919995289295912">
        <ele>379.37744140625</ele>
        <time>2010-10-10T11:38:20Z</time>
      </trkpt>
      <trkpt lat="46.789464997127652" lon="15.91991163790226">
        <ele>380.3387451171875</ele>
        <time>2010-10-10T11:38:31Z</time>
      </trkpt>
      <trkpt lat="46.789548061788082" lon="15.919883642345667">
        <ele>380.3387451171875</ele>
        <time>2010-10-10T11:38:46Z</time>
      </trkpt>
      <trkpt lat="46.789574716240168" lon="15.919788256287575">
        <ele>381.7806396484375</ele>
        <time>2010-10-10T11:38:58Z</time>
      </trkpt>
      <trkpt lat="46.789676053449512" lon="15.919666634872556">
        <ele>384.664794921875</ele>
        <time>2010-10-10T11:39:11Z</time>
      </trkpt>
      <trkpt lat="46.789703462272882" lon="15.919573428109288">
        <ele>386.106689453125</ele>
        <time>2010-10-10T11:39:22Z</time>
      </trkpt>
      <trkpt lat="46.789820976555347" lon="15.919476533308625">
        <ele>387.0679931640625</ele>
        <time>2010-10-10T11:39:35Z</time>
      </trkpt>
      <trkpt lat="46.789920637384057" lon="15.919332951307297">
        <ele>389.47119140625</ele>
        <time>2010-10-10T11:39:51Z</time>
      </trkpt>
      <trkpt lat="46.790033038705587" lon="15.919313672930002">
        <ele>390.4326171875</ele>
        <time>2010-10-10T11:40:04Z</time>
      </trkpt>
      <trkpt lat="46.790182236582041" lon="15.91929062269628">
        <ele>391.87451171875</ele>
        <time>2010-10-10T11:40:21Z</time>
      </trkpt>
      <trkpt lat="46.790282819420099" lon="15.919269835576415">
        <ele>394.2779541015625</ele>
        <time>2010-10-10T11:40:35Z</time>
      </trkpt>
      <trkpt lat="46.79041089490056" lon="15.919271595776081">
        <ele>396.2005615234375</ele>
        <time>2010-10-10T11:40:50Z</time>
      </trkpt>
      <trkpt lat="46.790497060865164" lon="15.919284839183092">
        <ele>397.1617431640625</ele>
        <time>2010-10-10T11:41:07Z</time>
      </trkpt>
      <trkpt lat="46.790585573762655" lon="15.919301519170403">
        <ele>398.603759765625</ele>
        <time>2010-10-10T11:41:19Z</time>
      </trkpt>
      <trkpt lat="46.790729826316237" lon="15.919305877760053">
        <ele>400.5264892578125</ele>
        <time>2010-10-10T11:41:36Z</time>
      </trkpt>
      <trkpt lat="46.790791684761643" lon="15.919262627139688">
        <ele>400.5264892578125</ele>
        <time>2010-10-10T11:41:51Z</time>
      </trkpt>
      <trkpt lat="46.790814148262143" lon="15.919250641018152">
        <ele>400.5264892578125</ele>
        <time>2010-10-10T11:41:56Z</time>
      </trkpt>
      <trkpt lat="46.791022187098861" lon="15.919239660724998">
        <ele>401.968505859375</ele>
        <time>2010-10-10T11:42:16Z</time>
      </trkpt>
      <trkpt lat="46.791014559566975" lon="15.919366227462888">
        <ele>404.3717041015625</ele>
        <time>2010-10-10T11:42:30Z</time>
      </trkpt>
      <trkpt lat="46.790989162400365" lon="15.919385757297277">
        <ele>403.410400390625</ele>
        <time>2010-10-10T11:42:51Z</time>
      </trkpt>
      <trkpt lat="46.791034759953618" lon="15.919344099238515">
        <ele>402.9296875</ele>
        <time>2010-10-10T11:43:14Z</time>
      </trkpt>
      <trkpt lat="46.791091673076153" lon="15.919286934658885">
        <ele>402.9296875</ele>
        <time>2010-10-10T11:43:20Z</time>
      </trkpt>
      <trkpt lat="46.791410017758608" lon="15.919183837249875">
        <ele>406.2943115234375</ele>
        <time>2010-10-10T11:43:48Z</time>
      </trkpt>
      <trkpt lat="46.791625851765275" lon="15.91908048838377">
        <ele>409.1783447265625</ele>
        <time>2010-10-10T11:44:13Z</time>
      </trkpt>
      <trkpt lat="46.791761219501495" lon="15.919054420664907">
        <ele>409.6590576171875</ele>
        <time>2010-10-10T11:44:34Z</time>
      </trkpt>
      <trkpt lat="46.791818719357252" lon="15.919261537492275">
        <ele>412.062255859375</ele>
        <time>2010-10-10T11:44:53Z</time>
      </trkpt>
      <trkpt lat="46.791819389909506" lon="15.919276122003794">
        <ele>412.5428466796875</ele>
        <time>2010-10-10T11:44:54Z</time>
      </trkpt>
      <trkpt lat="46.791829280555248" lon="15.919503774493933">
        <ele>414.4654541015625</ele>
        <time>2010-10-10T11:45:14Z</time>
      </trkpt>
      <trkpt lat="46.791925923898816" lon="15.919628916308284">
        <ele>415.4268798828125</ele>
        <time>2010-10-10T11:45:27Z</time>
      </trkpt>
      <trkpt lat="46.792059196159244" lon="15.919792698696256">
        <ele>417.349609375</ele>
        <time>2010-10-10T11:45:47Z</time>
      </trkpt>
      <trkpt lat="46.792186265811324" lon="15.919949859380722">
        <ele>420.2333984375</ele>
        <time>2010-10-10T11:46:04Z</time>
      </trkpt>
      <trkpt lat="46.79230185225606" lon="15.920110289007425">
        <ele>422.156005859375</ele>
        <time>2010-10-10T11:46:19Z</time>
      </trkpt>
      <trkpt lat="46.792388185858727" lon="15.920209446921945">
        <ele>423.117431640625</ele>
        <time>2010-10-10T11:46:29Z</time>
      </trkpt>
      <trkpt lat="46.792594632133842" lon="15.920439194887877">
        <ele>423.5980224609375</ele>
        <time>2010-10-10T11:46:50Z</time>
      </trkpt>
      <trkpt lat="46.792792528867722" lon="15.920664165169001">
        <ele>425.520751953125</ele>
        <time>2010-10-10T11:47:12Z</time>
      </trkpt>
      <trkpt lat="46.7929991427809" lon="15.92087865807116">
        <ele>426.0013427734375</ele>
        <time>2010-10-10T11:47:35Z</time>
      </trkpt>
      <trkpt lat="46.793177090585232" lon="15.921072447672486">
        <ele>426.0013427734375</ele>
        <time>2010-10-10T11:47:56Z</time>
      </trkpt>
      <trkpt lat="46.793339783325791" lon="15.921286186203361">
        <ele>426.4820556640625</ele>
        <time>2010-10-10T11:48:16Z</time>
      </trkpt>
      <trkpt lat="46.793497195467353" lon="15.921501684933901">
        <ele>426.9627685546875</ele>
        <time>2010-10-10T11:48:35Z</time>
      </trkpt>
      <trkpt lat="46.793674640357494" lon="15.921602854505181">
        <ele>427.443359375</ele>
        <time>2010-10-10T11:48:51Z</time>
      </trkpt>
      <trkpt lat="46.793847642838955" lon="15.921735037118196">
        <ele>426.9627685546875</ele>
        <time>2010-10-10T11:49:08Z</time>
      </trkpt>
      <trkpt lat="46.794007318094373" lon="15.921911643818021">
        <ele>427.9239501953125</ele>
        <time>2010-10-10T11:49:27Z</time>
      </trkpt>
      <trkpt lat="46.794091137126088" lon="15.922099230811">
        <ele>428.4046630859375</ele>
        <time>2010-10-10T11:49:41Z</time>
      </trkpt>
      <trkpt lat="46.794158443808556" lon="15.922321267426014">
        <ele>429.365966796875</ele>
        <time>2010-10-10T11:49:55Z</time>
      </trkpt>
      <trkpt lat="46.794225834310055" lon="15.922547494992614">
        <ele>430.3272705078125</ele>
        <time>2010-10-10T11:50:12Z</time>
      </trkpt>
      <trkpt lat="46.79434385150671" lon="15.922650592401624">
        <ele>430.3272705078125</ele>
        <time>2010-10-10T11:50:30Z</time>
      </trkpt>
      <trkpt lat="46.794445272535086" lon="15.92249502427876">
        <ele>428.8853759765625</ele>
        <time>2010-10-10T11:50:47Z</time>
      </trkpt>
      <trkpt lat="46.794591788202524" lon="15.922361835837364">
        <ele>427.9239501953125</ele>
        <time>2010-10-10T11:51:03Z</time>
      </trkpt>
      <trkpt lat="46.794660855084658" lon="15.922326799482107">
        <ele>424.5594482421875</ele>
        <time>2010-10-10T11:51:14Z</time>
      </trkpt>
      <trkpt lat="46.79473914206028" lon="15.92226636596024">
        <ele>422.156005859375</ele>
        <time>2010-10-10T11:51:28Z</time>
      </trkpt>
      <trkpt lat="46.794791277498007" lon="15.922114150598645">
        <ele>418.310791015625</ele>
        <time>2010-10-10T11:51:42Z</time>
      </trkpt>
      <trkpt lat="46.794830085709691" lon="15.922003174200654">
        <ele>417.8302001953125</ele>
        <time>2010-10-10T11:52:01Z</time>
      </trkpt>
      <trkpt lat="46.794851375743747" lon="15.92188666574657">
        <ele>414.4654541015625</ele>
        <time>2010-10-10T11:52:18Z</time>
      </trkpt>
      <trkpt lat="46.794831091538072" lon="15.921781724318862">
        <ele>412.5428466796875</ele>
        <time>2010-10-10T11:52:38Z</time>
      </trkpt>
      <trkpt lat="46.794836623594165" lon="15.921665634959936">
        <ele>409.6590576171875</ele>
        <time>2010-10-10T11:52:57Z</time>
      </trkpt>
      <trkpt lat="46.79482027888298" lon="15.92158273793757">
        <ele>406.2943115234375</ele>
        <time>2010-10-10T11:53:14Z</time>
      </trkpt>
      <trkpt lat="46.794802341610193" lon="15.921540157869458">
        <ele>405.3330078125</ele>
        <time>2010-10-10T11:53:21Z</time>
      </trkpt>
      <trkpt lat="46.794783985242248" lon="15.92145717702806">
        <ele>403.89111328125</ele>
        <time>2010-10-10T11:53:36Z</time>
      </trkpt>
      <trkpt lat="46.794886328279972" lon="15.921301525086164">
        <ele>401.968505859375</ele>
        <time>2010-10-10T11:53:54Z</time>
      </trkpt>
      <trkpt lat="46.795039717108011" lon="15.921257017180324">
        <ele>400.0458984375</ele>
        <time>2010-10-10T11:54:13Z</time>
      </trkpt>
      <trkpt lat="46.795141557231545" lon="15.921187279745936">
        <ele>398.603759765625</ele>
        <time>2010-10-10T11:54:26Z</time>
      </trkpt>
      <trkpt lat="46.795183718204498" lon="15.921085020527244">
        <ele>397.6424560546875</ele>
        <time>2010-10-10T11:54:39Z</time>
      </trkpt>
      <trkpt lat="46.795246582478285" lon="15.920997932553291">
        <ele>396.68115234375</ele>
        <time>2010-10-10T11:54:50Z</time>
      </trkpt>
      <trkpt lat="46.795317493379116" lon="15.920884776860476">
        <ele>395.7198486328125</ele>
        <time>2010-10-10T11:55:03Z</time>
      </trkpt>
      <trkpt lat="46.795403072610497" lon="15.920811267569661">
        <ele>394.758544921875</ele>
        <time>2010-10-10T11:55:13Z</time>
      </trkpt>
      <trkpt lat="46.795511282980442" lon="15.920726777985692">
        <ele>392.3553466796875</ele>
        <time>2010-10-10T11:55:25Z</time>
      </trkpt>
      <trkpt lat="46.795608093962073" lon="15.920635918155313">
        <ele>390.9132080078125</ele>
        <time>2010-10-10T11:55:38Z</time>
      </trkpt>
      <trkpt lat="46.795680932700634" lon="15.92060842551291">
        <ele>389.951904296875</ele>
        <time>2010-10-10T11:55:49Z</time>
      </trkpt>
      <trkpt lat="46.79578042589128" lon="15.920530222356319">
        <ele>387.548583984375</ele>
        <time>2010-10-10T11:56:05Z</time>
      </trkpt>
      <trkpt lat="46.795854773372412" lon="15.920470794662833">
        <ele>386.58740234375</ele>
        <time>2010-10-10T11:56:19Z</time>
      </trkpt>
      <trkpt lat="46.796007575467229" lon="15.92037096619606">
        <ele>383.22265625</ele>
        <time>2010-10-10T11:56:36Z</time>
      </trkpt>
      <trkpt lat="46.796073960140347" lon="15.92031036503613">
        <ele>380.3387451171875</ele>
        <time>2010-10-10T11:56:47Z</time>
      </trkpt>
      <trkpt lat="46.796128274872899" lon="15.920200645923615">
        <ele>379.37744140625</ele>
        <time>2010-10-10T11:57:00Z</time>
      </trkpt>
      <trkpt lat="46.796166663989425" lon="15.920079443603754">
        <ele>378.4161376953125</ele>
        <time>2010-10-10T11:57:13Z</time>
      </trkpt>
      <trkpt lat="46.796177560463548" lon="15.920059578493237">
        <ele>376.0128173828125</ele>
        <time>2010-10-10T11:57:21Z</time>
      </trkpt>
      <trkpt lat="46.796191893517971" lon="15.920028816908598">
        <ele>376.9742431640625</ele>
        <time>2010-10-10T11:57:25Z</time>
      </trkpt>
      <trkpt lat="46.796294320374727" lon="15.919905183836818">
        <ele>375.5321044921875</ele>
        <time>2010-10-10T11:57:37Z</time>
      </trkpt>
      <trkpt lat="46.796361794695258" lon="15.91977727599442">
        <ele>373.12890625</ele>
        <time>2010-10-10T11:57:53Z</time>
      </trkpt>
      <trkpt lat="46.79637067951262" lon="15.919767385348678">
        <ele>373.12890625</ele>
        <time>2010-10-10T11:57:54Z</time>
      </trkpt>
      <trkpt lat="46.796464053913951" lon="15.91963017359376">
        <ele>372.16748046875</ele>
        <time>2010-10-10T11:58:10Z</time>
      </trkpt>
      <trkpt lat="46.796607216820121" lon="15.919503942131996">
        <ele>370.244873046875</ele>
        <time>2010-10-10T11:58:25Z</time>
      </trkpt>
      <trkpt lat="46.796646695584059" lon="15.919412327930331">
        <ele>368.322265625</ele>
        <time>2010-10-10T11:58:40Z</time>
      </trkpt>
      <trkpt lat="46.796661531552672" lon="15.919417021796107">
        <ele>368.322265625</ele>
        <time>2010-10-10T11:59:00Z</time>
      </trkpt>
      <trkpt lat="46.796722216531634" lon="15.919357594102621">
        <ele>366.8802490234375</ele>
        <time>2010-10-10T11:59:06Z</time>
      </trkpt>
      <trkpt lat="46.796849370002747" lon="15.919187357649207">
        <ele>364.9576416015625</ele>
        <time>2010-10-10T11:59:21Z</time>
      </trkpt>
      <trkpt lat="46.796999657526612" lon="15.91898811981082">
        <ele>362.07373046875</ele>
        <time>2010-10-10T11:59:40Z</time>
      </trkpt>
      <trkpt lat="46.797079285606742" lon="15.918845124542713">
        <ele>359.189697265625</ele>
        <time>2010-10-10T11:59:54Z</time>
      </trkpt>
      <trkpt lat="46.797092780470848" lon="15.918829953297973">
        <ele>359.189697265625</ele>
        <time>2010-10-10T11:59:56Z</time>
      </trkpt>
      <trkpt lat="46.79719939827919" lon="15.918674468994141">
        <ele>355.8251953125</ele>
        <time>2010-10-10T12:00:11Z</time>
      </trkpt>
      <trkpt lat="46.797309787943959" lon="15.918561229482293">
        <ele>353.902587890625</ele>
        <time>2010-10-10T12:00:29Z</time>
      </trkpt>
      <trkpt lat="46.797452867031097" lon="15.918339444324374">
        <ele>351.4991455078125</ele>
        <time>2010-10-10T12:00:49Z</time>
      </trkpt>
      <trkpt lat="46.797598041594028" lon="15.91810617595911">
        <ele>348.1346435546875</ele>
        <time>2010-10-10T12:01:10Z</time>
      </trkpt>
      <trkpt lat="46.797719663009048" lon="15.91791364364326">
        <ele>345.2506103515625</ele>
        <time>2010-10-10T12:01:27Z</time>
      </trkpt>
      <trkpt lat="46.797844972461462" lon="15.91774801723659">
        <ele>342.36669921875</ele>
        <time>2010-10-10T12:01:45Z</time>
      </trkpt>
      <trkpt lat="46.797985034063458" lon="15.917548025026917">
        <ele>339.482666015625</ele>
        <time>2010-10-10T12:02:05Z</time>
      </trkpt>
      <trkpt lat="46.798118138685822" lon="15.917320372536778">
        <ele>336.598876953125</ele>
        <time>2010-10-10T12:02:23Z</time>
      </trkpt>
      <trkpt lat="46.798288626596332" lon="15.917051816359162">
        <ele>333.234130859375</ele>
        <time>2010-10-10T12:02:46Z</time>
      </trkpt>
      <trkpt lat="46.798376720398664" lon="15.916926339268684">
        <ele>332.7535400390625</ele>
        <time>2010-10-10T12:02:59Z</time>
      </trkpt>
      <trkpt lat="46.798486355692148" lon="15.916906222701073">
        <ele>330.8309326171875</ele>
        <time>2010-10-10T12:03:10Z</time>
      </trkpt>
      <trkpt lat="46.798551650717854" lon="15.916671780869365">
        <ele>329.8695068359375</ele>
        <time>2010-10-10T12:03:28Z</time>
      </trkpt>
      <trkpt lat="46.798565229400992" lon="15.916636325418949">
        <ele>329.8695068359375</ele>
        <time>2010-10-10T12:03:31Z</time>
      </trkpt>
      <trkpt lat="46.798570258542895" lon="15.916503891348839">
        <ele>329.8695068359375</ele>
        <time>2010-10-10T12:03:49Z</time>
      </trkpt>
      <trkpt lat="46.798463221639395" lon="15.916576730087399">
        <ele>328.9083251953125</ele>
        <time>2010-10-10T12:04:07Z</time>
      </trkpt>
      <trkpt lat="46.798465317115188" lon="15.916601456701756">
        <ele>328.4276123046875</ele>
        <time>2010-10-10T12:04:27Z</time>
      </trkpt>
      <trkpt lat="46.798488954082131" lon="15.916531467810273">
        <ele>329.388916015625</ele>
        <time>2010-10-10T12:04:57Z</time>
      </trkpt>
      <trkpt lat="46.798461377620697" lon="15.916568264365196">
        <ele>328.4276123046875</ele>
        <time>2010-10-10T12:05:44Z</time>
      </trkpt>
      <trkpt lat="46.798398848623037" lon="15.916673792526126">
        <ele>328.9083251953125</ele>
        <time>2010-10-10T12:06:04Z</time>
      </trkpt>
      <trkpt lat="46.798370433971286" lon="15.916681420058012">
        <ele>328.9083251953125</ele>
        <time>2010-10-10T12:06:18Z</time>
      </trkpt>
      <trkpt lat="46.798438327386975" lon="15.916604893282056">
        <ele>328.4276123046875</ele>
        <time>2010-10-10T12:06:43Z</time>
      </trkpt>
      <trkpt lat="46.798484344035387" lon="15.916505064815283">
        <ele>328.9083251953125</ele>
        <time>2010-10-10T12:07:06Z</time>
      </trkpt>
      <trkpt lat="46.798477554693818" lon="15.916533647105098">
        <ele>328.9083251953125</ele>
        <time>2010-10-10T12:07:40Z</time>
      </trkpt>
      <trkpt lat="46.798483757302165" lon="15.91651369817555">
        <ele>328.4276123046875</ele>
        <time>2010-10-10T12:08:18Z</time>
      </trkpt>
      <trkpt lat="46.798551734536886" lon="15.916479583829641">
        <ele>327.94677734375</ele>
        <time>2010-10-10T12:08:40Z</time>
      </trkpt>
      <trkpt lat="46.79873907007277" lon="15.916348490864038">
        <ele>325.5435791015625</ele>
        <time>2010-10-10T12:08:59Z</time>
      </trkpt>
      <trkpt lat="46.798767065629363" lon="15.916291577741504">
        <ele>325.06298828125</ele>
        <time>2010-10-10T12:09:15Z</time>
      </trkpt>
      <trkpt lat="46.798782739788294" lon="15.916296439245343">
        <ele>325.5435791015625</ele>
        <time>2010-10-10T12:09:18Z</time>
      </trkpt>
      <trkpt lat="46.798859937116504" lon="15.916317058727145">
        <ele>324.1015625</ele>
        <time>2010-10-10T12:09:25Z</time>
      </trkpt>
      <trkpt lat="46.798948617652059" lon="15.916488552466035">
        <ele>323.6209716796875</ele>
        <time>2010-10-10T12:09:42Z</time>
      </trkpt>
      <trkpt lat="46.798956580460072" lon="15.916494252160192">
        <ele>323.6209716796875</ele>
        <time>2010-10-10T12:09:43Z</time>
      </trkpt>
      <trkpt lat="46.79900586605072" lon="15.916537838056684">
        <ele>323.140380859375</ele>
        <time>2010-10-10T12:09:48Z</time>
      </trkpt>
      <trkpt lat="46.79913092404604" lon="15.916694328188896">
        <ele>321.6983642578125</ele>
        <time>2010-10-10T12:10:03Z</time>
      </trkpt>
      <trkpt lat="46.799239972606301" lon="15.916491821408272">
        <ele>319.2950439453125</ele>
        <time>2010-10-10T12:10:22Z</time>
      </trkpt>
      <trkpt lat="46.799313817173243" lon="15.916401045396924">
        <ele>315.930419921875</ele>
        <time>2010-10-10T12:10:35Z</time>
      </trkpt>
      <trkpt lat="46.799319265410304" lon="15.916392328217626">
        <ele>315.930419921875</ele>
        <time>2010-10-10T12:10:36Z</time>
      </trkpt>
      <trkpt lat="46.799390092492104" lon="15.916298283264041">
        <ele>312.5657958984375</ele>
        <time>2010-10-10T12:10:51Z</time>
      </trkpt>
      <trkpt lat="46.799486987292767" lon="15.91622008010745">
        <ele>310.1624755859375</ele>
        <time>2010-10-10T12:11:06Z</time>
      </trkpt>
      <trkpt lat="46.799574745818973" lon="15.91617657802999">
        <ele>308.720458984375</ele>
        <time>2010-10-10T12:11:15Z</time>
      </trkpt>
      <trkpt lat="46.799596790224314" lon="15.91617657802999">
        <ele>308.720458984375</ele>
        <time>2010-10-10T12:11:17Z</time>
      </trkpt>
      <trkpt lat="46.799696451053023" lon="15.916274562478065">
        <ele>309.201171875</ele>
        <time>2010-10-10T12:11:30Z</time>
      </trkpt>
      <trkpt lat="46.799740958958864" lon="15.916248327121139">
        <ele>306.3172607421875</ele>
        <time>2010-10-10T12:11:36Z</time>
      </trkpt>
      <trkpt lat="46.799743892624974" lon="15.916247824206948">
        <ele>310.1624755859375</ele>
        <time>2010-10-10T12:11:37Z</time>
      </trkpt>
      <trkpt lat="46.799762165173888" lon="15.916227623820305">
        <ele>306.3172607421875</ele>
        <time>2010-10-10T12:11:42Z</time>
      </trkpt>
      <trkpt lat="46.799780689179897" lon="15.916209686547518">
        <ele>309.681884765625</ele>
        <time>2010-10-10T12:11:45Z</time>
      </trkpt>
      <trkpt lat="46.799790663644671" lon="15.916200131177902">
        <ele>306.3172607421875</ele>
        <time>2010-10-10T12:11:47Z</time>
      </trkpt>
      <trkpt lat="46.79979401640594" lon="15.916173057630658">
        <ele>309.201171875</ele>
        <time>2010-10-10T12:11:56Z</time>
      </trkpt>
      <trkpt lat="46.799846235662699" lon="15.916126873344183">
        <ele>310.64306640625</ele>
        <time>2010-10-10T12:12:07Z</time>
      </trkpt>
      <trkpt lat="46.799941118806601" lon="15.916071049869061">
        <ele>312.5657958984375</ele>
        <time>2010-10-10T12:12:19Z</time>
      </trkpt>
      <trkpt lat="46.80005737580359" lon="15.916126873344183">
        <ele>315.4498291015625</ele>
        <time>2010-10-10T12:12:34Z</time>
      </trkpt>
      <trkpt lat="46.80015024729073" lon="15.916239945217967">
        <ele>318.8143310546875</ele>
        <time>2010-10-10T12:12:51Z</time>
      </trkpt>
      <trkpt lat="46.800266671925783" lon="15.916226869449019">
        <ele>321.6983642578125</ele>
        <time>2010-10-10T12:13:06Z</time>
      </trkpt>
      <trkpt lat="46.800402458757162" lon="15.916211865842342">
        <ele>324.1015625</ele>
        <time>2010-10-10T12:13:23Z</time>
      </trkpt>
      <trkpt lat="46.800560457631946" lon="15.916261319071054">
        <ele>324.582275390625</ele>
        <time>2010-10-10T12:13:43Z</time>
      </trkpt>
      <trkpt lat="46.800628853961825" lon="15.916346898302436">
        <ele>325.06298828125</ele>
        <time>2010-10-10T12:13:58Z</time>
      </trkpt>
      <trkpt lat="46.800664979964495" lon="15.916577316820621">
        <ele>324.582275390625</ele>
        <time>2010-10-10T12:14:14Z</time>
      </trkpt>
      <trkpt lat="46.800741590559483" lon="15.916754929348826">
        <ele>324.1015625</ele>
        <time>2010-10-10T12:14:31Z</time>
      </trkpt>
      <trkpt lat="46.800744524225593" lon="15.91680496931076">
        <ele>324.1015625</ele>
        <time>2010-10-10T12:14:40Z</time>
      </trkpt>
      <trkpt lat="46.800729855895042" lon="15.9168132673949">
        <ele>322.65966796875</ele>
        <time>2010-10-10T12:14:44Z</time>
      </trkpt>
      <trkpt lat="46.800829684361815" lon="15.916770016774535">
        <ele>323.140380859375</ele>
        <time>2010-10-10T12:15:10Z</time>
      </trkpt>
      <trkpt lat="46.800802359357476" lon="15.916794491931796">
        <ele>323.140380859375</ele>
        <time>2010-10-10T12:15:41Z</time>
      </trkpt>
      <trkpt lat="46.800795989111066" lon="15.916807232424617">
        <ele>322.65966796875</ele>
        <time>2010-10-10T12:16:07Z</time>
      </trkpt>
      <trkpt lat="46.800748882815242" lon="15.916876383125782">
        <ele>323.6209716796875</ele>
        <time>2010-10-10T12:16:38Z</time>
      </trkpt>
      <trkpt lat="46.800781739875674" lon="15.916882334277034">
        <ele>323.140380859375</ele>
        <time>2010-10-10T12:16:52Z</time>
      </trkpt>
      <trkpt lat="46.800775788724422" lon="15.916816620156169">
        <ele>323.140380859375</ele>
        <time>2010-10-10T12:17:13Z</time>
      </trkpt>
      <trkpt lat="46.800778470933437" lon="15.916839754208922">
        <ele>322.178955078125</ele>
        <time>2010-10-10T12:17:41Z</time>
      </trkpt>
      <trkpt lat="46.800812920555472" lon="15.916865151375532">
        <ele>322.65966796875</ele>
        <time>2010-10-10T12:18:05Z</time>
      </trkpt>
      <trkpt lat="46.80083136074245" lon="15.916817458346486">
        <ele>322.65966796875</ele>
        <time>2010-10-10T12:18:26Z</time>
      </trkpt>
      <trkpt lat="46.800916185602546" lon="15.916736992076039">
        <ele>322.65966796875</ele>
        <time>2010-10-10T12:18:42Z</time>
      </trkpt>
      <trkpt lat="46.801103185862303" lon="15.916642025113106">
        <ele>323.140380859375</ele>
        <time>2010-10-10T12:19:04Z</time>
      </trkpt>
      <trkpt lat="46.801178371533751" lon="15.916681084781885">
        <ele>323.6209716796875</ele>
        <time>2010-10-10T12:19:13Z</time>
      </trkpt>
      <trkpt lat="46.80134005844593" lon="15.91670673340559">
        <ele>324.582275390625</ele>
        <time>2010-10-10T12:19:34Z</time>
      </trkpt>
      <trkpt lat="46.801354056224227" lon="15.916643869131804">
        <ele>324.582275390625</ele>
        <time>2010-10-10T12:19:45Z</time>
      </trkpt>
      <trkpt lat="46.801351541653275" lon="15.916631128638983">
        <ele>324.582275390625</ele>
        <time>2010-10-10T12:19:46Z</time>
      </trkpt>
      <trkpt lat="46.80139034986496" lon="15.916295181959867">
        <ele>326.985595703125</ele>
        <time>2010-10-10T12:20:09Z</time>
      </trkpt>
      <trkpt lat="46.801421530544758" lon="15.916235335171223">
        <ele>327.94677734375</ele>
        <time>2010-10-10T12:20:14Z</time>
      </trkpt>
      <trkpt lat="46.801484394818544" lon="15.916019333526492">
        <ele>327.4661865234375</ele>
        <time>2010-10-10T12:20:32Z</time>
      </trkpt>
      <trkpt lat="46.801303597167134" lon="15.915680872276425">
        <ele>327.4661865234375</ele>
        <time>2010-10-10T12:20:56Z</time>
      </trkpt>
      <trkpt lat="46.801163787022233" lon="15.915302764624357">
        <ele>326.5048828125</ele>
        <time>2010-10-10T12:21:21Z</time>
      </trkpt>
      <trkpt lat="46.801071083173156" lon="15.915096066892147">
        <ele>326.5048828125</ele>
        <time>2010-10-10T12:21:43Z</time>
      </trkpt>
      <trkpt lat="46.800900930538774" lon="15.915150884538889">
        <ele>327.4661865234375</ele>
        <time>2010-10-10T12:22:05Z</time>
      </trkpt>
      <trkpt lat="46.800770256668329" lon="15.915270997211337">
        <ele>326.985595703125</ele>
        <time>2010-10-10T12:22:25Z</time>
      </trkpt>
      <trkpt lat="46.800743937492371" lon="15.915303938090801">
        <ele>326.985595703125</ele>
        <time>2010-10-10T12:22:47Z</time>
      </trkpt>
      <trkpt lat="46.80077419616282" lon="15.915262950584292">
        <ele>326.5048828125</ele>
        <time>2010-10-10T12:22:51Z</time>
      </trkpt>
      <trkpt lat="46.800805879756808" lon="15.915217185392976">
        <ele>326.5048828125</ele>
        <time>2010-10-10T12:22:55Z</time>
      </trkpt>
      <trkpt lat="46.800962788984179" lon="15.915134120732546">
        <ele>326.024169921875</ele>
        <time>2010-10-10T12:23:14Z</time>
      </trkpt>
      <trkpt lat="46.800968069583178" lon="15.915335956960917">
        <ele>326.985595703125</ele>
        <time>2010-10-10T12:23:31Z</time>
      </trkpt>
      <trkpt lat="46.800955580547452" lon="15.915238475427032">
        <ele>326.5048828125</ele>
        <time>2010-10-10T12:23:44Z</time>
      </trkpt>
      <trkpt lat="46.800956837832928" lon="15.915304776281118">
        <ele>326.5048828125</ele>
        <time>2010-10-10T12:24:06Z</time>
      </trkpt>
      <trkpt lat="46.800988186150789" lon="15.915352972224355">
        <ele>326.985595703125</ele>
        <time>2010-10-10T12:24:36Z</time>
      </trkpt>
      <trkpt lat="46.800965052098036" lon="15.915268985554576">
        <ele>326.985595703125</ele>
        <time>2010-10-10T12:24:48Z</time>
      </trkpt>
      <trkpt lat="46.800964046269655" lon="15.915254065766931">
        <ele>326.985595703125</ele>
        <time>2010-10-10T12:24:54Z</time>
      </trkpt>
      <trkpt lat="46.801098240539432" lon="15.914985341951251">
        <ele>325.5435791015625</ele>
        <time>2010-10-10T12:25:16Z</time>
      </trkpt>
      <trkpt lat="46.801082817837596" lon="15.914957849308848">
        <ele>325.06298828125</ele>
        <time>2010-10-10T12:25:29Z</time>
      </trkpt>
      <trkpt lat="46.801074435934424" lon="15.914843687787652">
        <ele>325.06298828125</ele>
        <time>2010-10-10T12:25:36Z</time>
      </trkpt>
      <trkpt lat="46.801175689324737" lon="15.914687868207693">
        <ele>324.1015625</ele>
        <time>2010-10-10T12:25:55Z</time>
      </trkpt>
      <trkpt lat="46.801191698759794" lon="15.914671272039413">
        <ele>324.582275390625</ele>
        <time>2010-10-10T12:26:10Z</time>
      </trkpt>
      <trkpt lat="46.801208881661296" lon="15.91466473415494">
        <ele>324.1015625</ele>
        <time>2010-10-10T12:26:12Z</time>
      </trkpt>
      <trkpt lat="46.801375932991505" lon="15.914690131321549">
        <ele>322.178955078125</ele>
        <time>2010-10-10T12:26:29Z</time>
      </trkpt>
      <trkpt lat="46.80156578309834" lon="15.914895571768284">
        <ele>320.25634765625</ele>
        <time>2010-10-10T12:26:52Z</time>
      </trkpt>
      <trkpt lat="46.801664521917701" lon="15.914982240647078">
        <ele>318.8143310546875</ele>
        <time>2010-10-10T12:27:10Z</time>
      </trkpt>
      <trkpt lat="46.801733085885644" lon="15.915062539279461">
        <ele>318.3336181640625</ele>
        <time>2010-10-10T12:27:26Z</time>
      </trkpt>
      <trkpt lat="46.801823526620865" lon="15.915174018591642">
        <ele>317.85302734375</ele>
        <time>2010-10-10T12:27:41Z</time>
      </trkpt>
      <trkpt lat="46.801838697865605" lon="15.915173264220357">
        <ele>317.3724365234375</ele>
        <time>2010-10-10T12:27:44Z</time>
      </trkpt>
      <trkpt lat="46.801963252946734" lon="15.915148286148906">
        <ele>316.8917236328125</ele>
        <time>2010-10-10T12:27:56Z</time>
      </trkpt>
      <trkpt lat="46.80215653963387" lon="15.914892386645079">
        <ele>315.4498291015625</ele>
        <time>2010-10-10T12:28:19Z</time>
      </trkpt>
      <trkpt lat="46.802171878516674" lon="15.914874197915196">
        <ele>314.9691162109375</ele>
        <time>2010-10-10T12:28:34Z</time>
      </trkpt>
      <trkpt lat="46.802248824387789" lon="15.914737237617373">
        <ele>314.4884033203125</ele>
        <time>2010-10-10T12:28:56Z</time>
      </trkpt>
      <trkpt lat="46.802377821877599" lon="15.914472537115216">
        <ele>313.0465087890625</ele>
        <time>2010-10-10T12:29:15Z</time>
      </trkpt>
      <trkpt lat="46.802512183785439" lon="15.914219571277499">
        <ele>309.681884765625</ele>
        <time>2010-10-10T12:29:34Z</time>
      </trkpt>
      <trkpt lat="46.802633386105299" lon="15.91401387937367">
        <ele>306.7978515625</ele>
        <time>2010-10-10T12:29:50Z</time>
      </trkpt>
      <trkpt lat="46.802646042779088" lon="15.913972221314907">
        <ele>305.836669921875</ele>
        <time>2010-10-10T12:29:58Z</time>
      </trkpt>
      <trkpt lat="46.802791971713305" lon="15.913848169147968">
        <ele>303.9139404296875</ele>
        <time>2010-10-10T12:30:13Z</time>
      </trkpt>
      <trkpt lat="46.803006380796432" lon="15.91383752413094">
        <ele>301.5106201171875</ele>
        <time>2010-10-10T12:30:31Z</time>
      </trkpt>
      <trkpt lat="46.803291952237487" lon="15.913995858281851">
        <ele>300.0687255859375</ele>
        <time>2010-10-10T12:30:56Z</time>
      </trkpt>
      <trkpt lat="46.803520191460848" lon="15.914200292900205">
        <ele>298.626708984375</ele>
        <time>2010-10-10T12:31:18Z</time>
      </trkpt>
      <trkpt lat="46.803714567795396" lon="15.914423922076821">
        <ele>298.626708984375</ele>
        <time>2010-10-10T12:31:38Z</time>
      </trkpt>
      <trkpt lat="46.803957559168339" lon="15.914548393338919">
        <ele>297.6654052734375</ele>
        <time>2010-10-10T12:32:00Z</time>
      </trkpt>
      <trkpt lat="46.804177081212401" lon="15.914535149931908">
        <ele>298.1461181640625</ele>
        <time>2010-10-10T12:32:20Z</time>
      </trkpt>
      <trkpt lat="46.80445066653192" lon="15.914618130773306">
        <ele>297.1846923828125</ele>
        <time>2010-10-10T12:32:41Z</time>
      </trkpt>
      <trkpt lat="46.804634397849441" lon="15.914682252332568">
        <ele>297.1846923828125</ele>
        <time>2010-10-10T12:32:55Z</time>
      </trkpt>
      <trkpt lat="46.804738836362958" lon="15.914532719179988">
        <ele>297.1846923828125</ele>
        <time>2010-10-10T12:33:08Z</time>
      </trkpt>
      <trkpt lat="46.804758533835411" lon="15.914455857127905">
        <ele>297.1846923828125</ele>
        <time>2010-10-10T12:33:12Z</time>
      </trkpt>
      <trkpt lat="46.804763060063124" lon="15.914378156885505">
        <ele>297.1846923828125</ele>
        <time>2010-10-10T12:33:16Z</time>
      </trkpt>
      <trkpt lat="46.804776638746262" lon="15.913988063111901">
        <ele>296.7041015625</ele>
        <time>2010-10-10T12:33:37Z</time>
      </trkpt>
      <trkpt lat="46.804770519956946" lon="15.913860239088535">
        <ele>296.7041015625</ele>
        <time>2010-10-10T12:33:44Z</time>
      </trkpt>
      <trkpt lat="46.804828941822052" lon="15.913551868870854">
        <ele>296.2235107421875</ele>
        <time>2010-10-10T12:34:02Z</time>
      </trkpt>
      <trkpt lat="46.805055923759937" lon="15.913137719035149">
        <ele>294.7813720703125</ele>
        <time>2010-10-10T12:34:31Z</time>
      </trkpt>
      <trkpt lat="46.805323893204331" lon="15.912885926663876">
        <ele>294.30078125</ele>
        <time>2010-10-10T12:35:00Z</time>
      </trkpt>
      <trkpt lat="46.805352140218019" lon="15.912822224199772">
        <ele>295.74267578125</ele>
        <time>2010-10-10T12:35:35Z</time>
      </trkpt>
      <trkpt lat="46.805471163243055" lon="15.912745362147689">
        <ele>295.74267578125</ele>
        <time>2010-10-10T12:36:00Z</time>
      </trkpt>
      <trkpt lat="46.805718177929521" lon="15.912599097937346">
        <ele>296.2235107421875</ele>
        <time>2010-10-10T12:36:25Z</time>
      </trkpt>
      <trkpt lat="46.80598103441298" lon="15.912414193153381">
        <ele>297.1846923828125</ele>
        <time>2010-10-10T12:36:50Z</time>
      </trkpt>
      <trkpt lat="46.806193767115474" lon="15.912188636139035">
        <ele>297.1846923828125</ele>
        <time>2010-10-10T12:37:14Z</time>
      </trkpt>
      <trkpt lat="46.806223355233669" lon="15.912123927846551">
        <ele>296.7041015625</ele>
        <time>2010-10-10T12:37:20Z</time>
      </trkpt>
      <trkpt lat="46.806226959452033" lon="15.912082269787788">
        <ele>296.2235107421875</ele>
        <time>2010-10-10T12:37:23Z</time>
      </trkpt>
      <trkpt lat="46.806243555620313" lon="15.91189275495708">
        <ele>296.2235107421875</ele>
        <time>2010-10-10T12:37:36Z</time>
      </trkpt>
      <trkpt lat="46.806254032999277" lon="15.911879846826196">
        <ele>296.2235107421875</ele>
        <time>2010-10-10T12:37:37Z</time>
      </trkpt>
      <trkpt lat="46.806391328573227" lon="15.911796195432544">
        <ele>297.1846923828125</ele>
        <time>2010-10-10T12:37:54Z</time>
      </trkpt>
      <trkpt lat="46.806604899466038" lon="15.91178135946393">
        <ele>298.626708984375</ele>
        <time>2010-10-10T12:38:11Z</time>
      </trkpt>
      <trkpt lat="46.806731969118118" lon="15.911757135763764">
        <ele>299.5880126953125</ele>
        <time>2010-10-10T12:38:25Z</time>
      </trkpt>
      <trkpt lat="46.806887034326792" lon="15.911695528775454">
        <ele>301.9913330078125</ele>
        <time>2010-10-10T12:38:42Z</time>
      </trkpt>
      <trkpt lat="46.807014439254999" lon="15.911623444408178">
        <ele>305.35595703125</ele>
        <time>2010-10-10T12:38:59Z</time>
      </trkpt>
      <trkpt lat="46.807008571922779" lon="15.911458656191826">
        <ele>306.3172607421875</ele>
        <time>2010-10-10T12:39:14Z</time>
      </trkpt>
      <trkpt lat="46.806933637708426" lon="15.911257741972804">
        <ele>306.7978515625</ele>
        <time>2010-10-10T12:39:31Z</time>
      </trkpt>
      <trkpt lat="46.806831462308764" lon="15.911150285974145">
        <ele>308.720458984375</ele>
        <time>2010-10-10T12:39:46Z</time>
      </trkpt>
      <trkpt lat="46.806744374334812" lon="15.910997986793518">
        <ele>310.64306640625</ele>
        <time>2010-10-10T12:39:59Z</time>
      </trkpt>
      <trkpt lat="46.806618561968207" lon="15.910887848585844">
        <ele>311.123779296875</ele>
        <time>2010-10-10T12:40:12Z</time>
      </trkpt>
      <trkpt lat="46.80648478679359" lon="15.910642426460981">
        <ele>312.5657958984375</ele>
        <time>2010-10-10T12:40:30Z</time>
      </trkpt>
      <trkpt lat="46.806356627494097" lon="15.910465819761157">
        <ele>313.5272216796875</ele>
        <time>2010-10-10T12:40:45Z</time>
      </trkpt>
      <trkpt lat="46.806204076856375" lon="15.91024654917419">
        <ele>314.9691162109375</ele>
        <time>2010-10-10T12:41:03Z</time>
      </trkpt>
      <trkpt lat="46.806198628619313" lon="15.910235065966845">
        <ele>314.4884033203125</ele>
        <time>2010-10-10T12:41:04Z</time>
      </trkpt>
      <trkpt lat="46.806166777387261" lon="15.910138674080372">
        <ele>314.9691162109375</ele>
        <time>2010-10-10T12:41:11Z</time>
      </trkpt>
      <trkpt lat="46.806052448228002" lon="15.909904567524791">
        <ele>315.4498291015625</ele>
        <time>2010-10-10T12:41:26Z</time>
      </trkpt>
      <trkpt lat="46.80602059699595" lon="15.909825274720788">
        <ele>315.4498291015625</ele>
        <time>2010-10-10T12:41:31Z</time>
      </trkpt>
      <trkpt lat="46.80592437274754" lon="15.90953953564167">
        <ele>314.0078125</ele>
        <time>2010-10-10T12:41:50Z</time>
      </trkpt>
      <trkpt lat="46.805811384692788" lon="15.909235943108797">
        <ele>313.5272216796875</ele>
        <time>2010-10-10T12:42:10Z</time>
      </trkpt>
      <trkpt lat="46.805685237050056" lon="15.908898571506143">
        <ele>313.5272216796875</ele>
        <time>2010-10-10T12:42:32Z</time>
      </trkpt>
      <trkpt lat="46.805572081357241" lon="15.908575616776943">
        <ele>313.5272216796875</ele>
        <time>2010-10-10T12:42:53Z</time>
      </trkpt>
      <trkpt lat="46.805438892915845" lon="15.908248890191317">
        <ele>313.0465087890625</ele>
        <time>2010-10-10T12:43:15Z</time>
      </trkpt>
      <trkpt lat="46.80529497563839" lon="15.907998690381646">
        <ele>312.085205078125</ele>
        <time>2010-10-10T12:43:34Z</time>
      </trkpt>
      <trkpt lat="46.805147118866444" lon="15.907758884131908">
        <ele>311.123779296875</ele>
        <time>2010-10-10T12:43:51Z</time>
      </trkpt>
      <trkpt lat="46.80502625182271" lon="15.907439617440104">
        <ele>312.085205078125</ele>
        <time>2010-10-10T12:44:13Z</time>
      </trkpt>
      <trkpt lat="46.804970428347588" lon="15.907137366011739">
        <ele>312.085205078125</ele>
        <time>2010-10-10T12:44:33Z</time>
      </trkpt>
      <trkpt lat="46.804953161627054" lon="15.907004429027438">
        <ele>312.5657958984375</ele>
        <time>2010-10-10T12:44:43Z</time>
      </trkpt>
      <trkpt lat="46.804903959855437" lon="15.906816590577364">
        <ele>314.0078125</ele>
        <time>2010-10-10T12:44:59Z</time>
      </trkpt>
      <trkpt lat="46.80485182441771" lon="15.906619196757674">
        <ele>316.8917236328125</ele>
        <time>2010-10-10T12:45:15Z</time>
      </trkpt>
      <trkpt lat="46.80481712333858" lon="15.906477626413107">
        <ele>317.85302734375</ele>
        <time>2010-10-10T12:45:32Z</time>
      </trkpt>
      <trkpt lat="46.804780075326562" lon="15.906280651688576">
        <ele>319.775634765625</ele>
        <time>2010-10-10T12:45:51Z</time>
      </trkpt>
      <trkpt lat="46.804709080606699" lon="15.906108152121305">
        <ele>320.737060546875</ele>
        <time>2010-10-10T12:46:08Z</time>
      </trkpt>
      <trkpt lat="46.804683767259121" lon="15.90599013492465">
        <ele>321.6983642578125</ele>
        <time>2010-10-10T12:46:18Z</time>
      </trkpt>
      <trkpt lat="46.804654933512211" lon="15.905933137983084">
        <ele>321.2177734375</ele>
        <time>2010-10-10T12:46:35Z</time>
      </trkpt>
      <trkpt lat="46.804615454748273" lon="15.905762650072575">
        <ele>320.737060546875</ele>
        <time>2010-10-10T12:46:49Z</time>
      </trkpt>
      <trkpt lat="46.804629620164633" lon="15.905532650649548">
        <ele>319.2950439453125</ele>
        <time>2010-10-10T12:47:06Z</time>
      </trkpt>
      <trkpt lat="46.804575053974986" lon="15.905486298725009">
        <ele>318.3336181640625</ele>
        <time>2010-10-10T12:47:15Z</time>
      </trkpt>
      <trkpt lat="46.804442619904876" lon="15.905431983992457">
        <ele>315.4498291015625</ele>
        <time>2010-10-10T12:47:34Z</time>
      </trkpt>
      <trkpt lat="46.804267019033432" lon="15.905378423631191">
        <ele>313.0465087890625</ele>
        <time>2010-10-10T12:47:51Z</time>
      </trkpt>
      <trkpt lat="46.804131483659148" lon="15.905367191880941">
        <ele>312.5657958984375</ele>
        <time>2010-10-10T12:48:09Z</time>
      </trkpt>
      <trkpt lat="46.804110780358315" lon="15.905354535207152">
        <ele>311.123779296875</ele>
        <time>2010-10-10T12:48:17Z</time>
      </trkpt>
      <trkpt lat="46.803949680179358" lon="15.905185556039214">
        <ele>309.681884765625</ele>
        <time>2010-10-10T12:48:37Z</time>
      </trkpt>
      <trkpt lat="46.803815737366676" lon="15.90500358492136">
        <ele>308.720458984375</ele>
        <time>2010-10-10T12:48:53Z</time>
      </trkpt>
      <trkpt lat="46.803768798708916" lon="15.904852459207177">
        <ele>307.278564453125</ele>
        <time>2010-10-10T12:49:05Z</time>
      </trkpt>
      <trkpt lat="46.803631838411093" lon="15.904724886640906">
        <ele>305.35595703125</ele>
        <time>2010-10-10T12:49:20Z</time>
      </trkpt>
      <trkpt lat="46.803511222824454" lon="15.904594631865621">
        <ele>303.9139404296875</ele>
        <time>2010-10-10T12:49:36Z</time>
      </trkpt>
      <trkpt lat="46.803394379094243" lon="15.904495557770133">
        <ele>301.5106201171875</ele>
        <time>2010-10-10T12:49:48Z</time>
      </trkpt>
      <trkpt lat="46.803252892568707" lon="15.904350634664297">
        <ele>299.1072998046875</ele>
        <time>2010-10-10T12:50:07Z</time>
      </trkpt>
      <trkpt lat="46.803183741867542" lon="15.904221888631582">
        <ele>297.1846923828125</ele>
        <time>2010-10-10T12:50:20Z</time>
      </trkpt>
      <trkpt lat="46.803130265325308" lon="15.90404637157917">
        <ele>295.261962890625</ele>
        <time>2010-10-10T12:50:33Z</time>
      </trkpt>
      <trkpt lat="46.803078632801771" lon="15.903853587806225">
        <ele>292.378173828125</ele>
        <time>2010-10-10T12:50:50Z</time>
      </trkpt>
      <trkpt lat="46.803109142929316" lon="15.903650829568505">
        <ele>290.9361572265625</ele>
        <time>2010-10-10T12:51:06Z</time>
      </trkpt>
      <trkpt lat="46.803044769912958" lon="15.903519652783871">
        <ele>288.05224609375</ele>
        <time>2010-10-10T12:51:21Z</time>
      </trkpt>
      <trkpt lat="46.803023144602776" lon="15.903383949771523">
        <ele>286.6102294921875</ele>
        <time>2010-10-10T12:51:34Z</time>
      </trkpt>
      <trkpt lat="46.803032448515296" lon="15.903193261474371">
        <ele>283.7261962890625</ele>
        <time>2010-10-10T12:51:47Z</time>
      </trkpt>
      <trkpt lat="46.803013924509287" lon="15.902972817420959">
        <ele>282.7650146484375</ele>
        <time>2010-10-10T12:52:05Z</time>
      </trkpt>
      <trkpt lat="46.803009565919638" lon="15.902943229302764">
        <ele>283.24560546875</ele>
        <time>2010-10-10T12:52:08Z</time>
      </trkpt>
      <trkpt lat="46.802966818213463" lon="15.902624381706119">
        <ele>280.8424072265625</ele>
        <time>2010-10-10T12:52:29Z</time>
      </trkpt>
      <trkpt lat="46.802958184853196" lon="15.902509046718478">
        <ele>277.4776611328125</ele>
        <time>2010-10-10T12:52:38Z</time>
      </trkpt>
      <trkpt lat="46.80293102748692" lon="15.902190953493118">
        <ele>275.5550537109375</ele>
        <time>2010-10-10T12:52:59Z</time>
      </trkpt>
      <trkpt lat="46.802917448803782" lon="15.90193304233253">
        <ele>274.113037109375</ele>
        <time>2010-10-10T12:53:15Z</time>
      </trkpt>
      <trkpt lat="46.802900433540344" lon="15.90170287527144">
        <ele>272.1904296875</ele>
        <time>2010-10-10T12:53:29Z</time>
      </trkpt>
      <trkpt lat="46.802879981696606" lon="15.901488466188312">
        <ele>271.2291259765625</ele>
        <time>2010-10-10T12:53:42Z</time>
      </trkpt>
      <trkpt lat="46.802878053858876" lon="15.901303561404347">
        <ele>270.2677001953125</ele>
        <time>2010-10-10T12:53:53Z</time>
      </trkpt>
      <trkpt lat="46.802857350558043" lon="15.901151178404689">
        <ele>269.787109375</ele>
        <time>2010-10-10T12:54:09Z</time>
      </trkpt>
      <trkpt lat="46.80285626091063" lon="15.901126116514206">
        <ele>269.787109375</ele>
        <time>2010-10-10T12:54:15Z</time>
      </trkpt>
      <trkpt lat="46.802855841815472" lon="15.901029389351606">
        <ele>268.3450927734375</ele>
        <time>2010-10-10T12:54:21Z</time>
      </trkpt>
      <trkpt lat="46.802827678620815" lon="15.900728479027748">
        <ele>267.3839111328125</ele>
        <time>2010-10-10T12:54:38Z</time>
      </trkpt>
      <trkpt lat="46.802796665579081" lon="15.900280885398388">
        <ele>265.4613037109375</ele>
        <time>2010-10-10T12:55:04Z</time>
      </trkpt>
      <trkpt lat="46.802767999470234" lon="15.899899676442146">
        <ele>264.4998779296875</ele>
        <time>2010-10-10T12:55:26Z</time>
      </trkpt>
      <trkpt lat="46.80273799225688" lon="15.899426182731986">
        <ele>263.53857421875</ele>
        <time>2010-10-10T12:55:53Z</time>
      </trkpt>
      <trkpt lat="46.802706141024828" lon="15.899255191907287">
        <ele>264.019287109375</ele>
        <time>2010-10-10T12:56:06Z</time>
      </trkpt>
      <trkpt lat="46.802657777443528" lon="15.899271033704281">
        <ele>264.019287109375</ele>
        <time>2010-10-10T12:56:11Z</time>
      </trkpt>
      <trkpt lat="46.802307581529021" lon="15.899413442239165">
        <ele>264.4998779296875</ele>
        <time>2010-10-10T12:56:41Z</time>
      </trkpt>
      <trkpt lat="46.802095687016845" lon="15.89944981969893">
        <ele>265.4613037109375</ele>
        <time>2010-10-10T12:56:59Z</time>
      </trkpt>
      <trkpt lat="46.801743982359767" lon="15.899460883811116">
        <ele>264.9805908203125</ele>
        <time>2010-10-10T12:57:28Z</time>
      </trkpt>
      <trkpt lat="46.801466457545757" lon="15.899319062009454">
        <ele>264.9805908203125</ele>
        <time>2010-10-10T12:57:52Z</time>
      </trkpt>
      <trkpt lat="46.801224136725068" lon="15.899296347051859">
        <ele>265.4613037109375</ele>
        <time>2010-10-10T12:58:14Z</time>
      </trkpt>
      <trkpt lat="46.8011983204633" lon="15.899299364537001">
        <ele>264.9805908203125</ele>
        <time>2010-10-10T12:58:17Z</time>
      </trkpt>
      <trkpt lat="46.801079045981169" lon="15.899051427841187">
        <ele>264.4998779296875</ele>
        <time>2010-10-10T12:58:36Z</time>
      </trkpt>
      <trkpt lat="46.801152639091015" lon="15.898758061230183">
        <ele>264.019287109375</ele>
        <time>2010-10-10T12:58:55Z</time>
      </trkpt>
      <trkpt lat="46.801270237192512" lon="15.898455055430532">
        <ele>263.53857421875</ele>
        <time>2010-10-10T12:59:15Z</time>
      </trkpt>
      <trkpt lat="46.801330838352442" lon="15.898192366585135">
        <ele>263.53857421875</ele>
        <time>2010-10-10T12:59:32Z</time>
      </trkpt>
      <trkpt lat="46.801356486976147" lon="15.897954320535064">
        <ele>263.53857421875</ele>
        <time>2010-10-10T12:59:49Z</time>
      </trkpt>
      <trkpt lat="46.801378196105361" lon="15.897757261991501">
        <ele>263.53857421875</ele>
        <time>2010-10-10T13:00:07Z</time>
      </trkpt>
      <trkpt lat="46.80136788636446" lon="15.897518461570144">
        <ele>262.5771484375</ele>
        <time>2010-10-10T13:00:26Z</time>
      </trkpt>
      <trkpt lat="46.801341651007533" lon="15.897284774109721">
        <ele>262.5771484375</ele>
        <time>2010-10-10T13:00:45Z</time>
      </trkpt>
      <trkpt lat="46.80129655636847" lon="15.897040776908398">
        <ele>260.1739501953125</ele>
        <time>2010-10-10T13:01:03Z</time>
      </trkpt>
      <trkpt lat="46.801291778683662" lon="15.897005992010236">
        <ele>263.057861328125</ele>
        <time>2010-10-10T13:01:06Z</time>
      </trkpt>
      <trkpt lat="46.801285156980157" lon="15.896958550438285">
        <ele>261.615966796875</ele>
        <time>2010-10-10T13:01:10Z</time>
      </trkpt>
      <trkpt lat="46.801200499758124" lon="15.896642217412591">
        <ele>262.0965576171875</ele>
        <time>2010-10-10T13:01:30Z</time>
      </trkpt>
      <trkpt lat="46.801137635484338" lon="15.89634214527905">
        <ele>261.13525390625</ele>
        <time>2010-10-10T13:01:48Z</time>
      </trkpt>
      <trkpt lat="46.801083656027913" lon="15.895967641845345">
        <ele>260.654541015625</ele>
        <time>2010-10-10T13:02:10Z</time>
      </trkpt>
      <trkpt lat="46.801094217225909" lon="15.895822467282414">
        <ele>259.212646484375</ele>
        <time>2010-10-10T13:02:27Z</time>
      </trkpt>
      <trkpt lat="46.801090529188514" lon="15.895799919962883">
        <ele>259.693359375</ele>
        <time>2010-10-10T13:02:32Z</time>
      </trkpt>
      <trkpt lat="46.800999250262976" lon="15.895454082638025">
        <ele>259.212646484375</ele>
        <time>2010-10-10T13:02:55Z</time>
      </trkpt>
      <trkpt lat="46.800899421796203" lon="15.895065749064088">
        <ele>258.2513427734375</ele>
        <time>2010-10-10T13:03:19Z</time>
      </trkpt>
      <trkpt lat="46.800774363800883" lon="15.894752433523536">
        <ele>257.2900390625</ele>
        <time>2010-10-10T13:03:40Z</time>
      </trkpt>
      <trkpt lat="46.800605468451977" lon="15.894549675285816">
        <ele>256.809326171875</ele>
        <time>2010-10-10T13:04:00Z</time>
      </trkpt>
      <trkpt lat="46.800596080720425" lon="15.89454397559166">
        <ele>256.3287353515625</ele>
        <time>2010-10-10T13:04:01Z</time>
      </trkpt>
      <trkpt lat="46.800431292504072" lon="15.894589070230722">
        <ele>255.8480224609375</ele>
        <time>2010-10-10T13:04:22Z</time>
      </trkpt>
      <trkpt lat="46.800400363281369" lon="15.894556548446417">
        <ele>255.8480224609375</ele>
        <time>2010-10-10T13:04:26Z</time>
      </trkpt>
      <trkpt lat="46.800327273085713" lon="15.894349180161953">
        <ele>256.3287353515625</ele>
        <time>2010-10-10T13:04:42Z</time>
      </trkpt>
      <trkpt lat="46.800336157903075" lon="15.894050449132919">
        <ele>256.3287353515625</ele>
        <time>2010-10-10T13:05:01Z</time>
      </trkpt>
      <trkpt lat="46.800326183438301" lon="15.893775690346956">
        <ele>255.8480224609375</ele>
        <time>2010-10-10T13:05:19Z</time>
      </trkpt>
      <trkpt lat="46.800316125154495" lon="15.893616350367665">
        <ele>257.2900390625</ele>
        <time>2010-10-10T13:05:28Z</time>
      </trkpt>
      <trkpt lat="46.800313778221607" lon="15.893585085868835">
        <ele>253.4447021484375</ele>
        <time>2010-10-10T13:05:30Z</time>
      </trkpt>
      <trkpt lat="46.800310760736465" lon="15.893557844683528">
        <ele>256.809326171875</ele>
        <time>2010-10-10T13:05:32Z</time>
      </trkpt>
      <trkpt lat="46.800303552299738" lon="15.893473690375686">
        <ele>255.8480224609375</ele>
        <time>2010-10-10T13:05:42Z</time>
      </trkpt>
      <trkpt lat="46.800292739644647" lon="15.893285181373358">
        <ele>256.3287353515625</ele>
        <time>2010-10-10T13:06:01Z</time>
      </trkpt>
      <trkpt lat="46.800294164568186" lon="15.893283421173692">
        <ele>257.2900390625</ele>
        <time>2010-10-10T13:06:05Z</time>
      </trkpt>
      <trkpt lat="46.800281843170524" lon="15.893137827515602">
        <ele>256.3287353515625</ele>
        <time>2010-10-10T13:06:19Z</time>
      </trkpt>
      <trkpt lat="46.800260385498405" lon="15.892840940505266">
        <ele>256.3287353515625</ele>
        <time>2010-10-10T13:06:37Z</time>
      </trkpt>
      <trkpt lat="46.800226187333465" lon="15.892461827024817">
        <ele>254.8865966796875</ele>
        <time>2010-10-10T13:06:58Z</time>
      </trkpt>
      <trkpt lat="46.80018343962729" lon="15.891949189826846">
        <ele>254.8865966796875</ele>
        <time>2010-10-10T13:07:26Z</time>
      </trkpt>
      <trkpt lat="46.800181763246655" lon="15.891486844047904">
        <ele>254.406005859375</ele>
        <time>2010-10-10T13:07:52Z</time>
      </trkpt>
      <trkpt lat="46.80018687620759" lon="15.89109918102622">
        <ele>255.3673095703125</ele>
        <time>2010-10-10T13:08:13Z</time>
      </trkpt>
      <trkpt lat="46.800193833187222" lon="15.89061344973743">
        <ele>254.406005859375</ele>
        <time>2010-10-10T13:08:41Z</time>
      </trkpt>
      <trkpt lat="46.800191570073366" lon="15.890126042068005">
        <ele>252.0028076171875</ele>
        <time>2010-10-10T13:09:09Z</time>
      </trkpt>
      <trkpt lat="46.8001414462924" lon="15.889615416526794">
        <ele>252.4833984375</ele>
        <time>2010-10-10T13:09:39Z</time>
      </trkpt>
      <trkpt lat="46.800044635310769" lon="15.889327749609947">
        <ele>252.9639892578125</ele>
        <time>2010-10-10T13:09:59Z</time>
      </trkpt>
      <trkpt lat="46.799829723313451" lon="15.888974871486425">
        <ele>251.0413818359375</ele>
        <time>2010-10-10T13:10:25Z</time>
      </trkpt>
      <trkpt lat="46.799664096906781" lon="15.888672452419996">
        <ele>252.0028076171875</ele>
        <time>2010-10-10T13:10:47Z</time>
      </trkpt>
      <trkpt lat="46.79951892234385" lon="15.888365590944886">
        <ele>251.5220947265625</ele>
        <time>2010-10-10T13:11:09Z</time>
      </trkpt>
      <trkpt lat="46.799467541277409" lon="15.888214465230703">
        <ele>252.0028076171875</ele>
        <time>2010-10-10T13:11:19Z</time>
      </trkpt>
      <trkpt lat="46.799469720572233" lon="15.888152522966266">
        <ele>251.5220947265625</ele>
        <time>2010-10-10T13:11:24Z</time>
      </trkpt>
      <trkpt lat="46.799407694488764" lon="15.887921852990985">
        <ele>251.5220947265625</ele>
        <time>2010-10-10T13:11:39Z</time>
      </trkpt>
      <trkpt lat="46.799346590414643" lon="15.887924367561936">
        <ele>252.0028076171875</ele>
        <time>2010-10-10T13:11:45Z</time>
      </trkpt>
      <trkpt lat="46.799099324271083" lon="15.888084042817354">
        <ele>252.0028076171875</ele>
        <time>2010-10-10T13:12:09Z</time>
      </trkpt>
      <trkpt lat="46.798882652074099" lon="15.888246735557914">
        <ele>252.0028076171875</ele>
        <time>2010-10-10T13:12:30Z</time>
      </trkpt>
      <trkpt lat="46.798693388700485" lon="15.888353185728192">
        <ele>251.5220947265625</ele>
        <time>2010-10-10T13:12:48Z</time>
      </trkpt>
      <trkpt lat="46.798612838611007" lon="15.888429125770926">
        <ele>251.5220947265625</ele>
        <time>2010-10-10T13:13:06Z</time>
      </trkpt>
      <trkpt lat="46.798451654613018" lon="15.888472627848387">
        <ele>251.0413818359375</ele>
        <time>2010-10-10T13:13:21Z</time>
      </trkpt>
      <trkpt lat="46.798386443406343" lon="15.888485116884112">
        <ele>251.0413818359375</ele>
        <time>2010-10-10T13:13:26Z</time>
      </trkpt>
      <trkpt lat="46.798144457861781" lon="15.888516046106815">
        <ele>250.560791015625</ele>
        <time>2010-10-10T13:13:45Z</time>
      </trkpt>
      <trkpt lat="46.797928540036082" lon="15.888530379161239">
        <ele>251.0413818359375</ele>
        <time>2010-10-10T13:14:03Z</time>
      </trkpt>
      <trkpt lat="46.797720165923238" lon="15.888543454930186">
        <ele>249.5994873046875</ele>
        <time>2010-10-10T13:14:19Z</time>
      </trkpt>
      <trkpt lat="46.797578679397702" lon="15.888615539297462">
        <ele>249.5994873046875</ele>
        <time>2010-10-10T13:14:32Z</time>
      </trkpt>
      <trkpt lat="46.797558981925249" lon="15.888632051646709">
        <ele>250.560791015625</ele>
        <time>2010-10-10T13:14:34Z</time>
      </trkpt>
      <trkpt lat="46.79738262668252" lon="15.88874688372016">
        <ele>250.0802001953125</ele>
        <time>2010-10-10T13:14:52Z</time>
      </trkpt>
      <trkpt lat="46.797309787943959" lon="15.888808825984597">
        <ele>250.0802001953125</ele>
        <time>2010-10-10T13:15:11Z</time>
      </trkpt>
      <trkpt lat="46.797262597829103" lon="15.888806730508804">
        <ele>250.0802001953125</ele>
        <time>2010-10-10T13:15:16Z</time>
      </trkpt>
      <trkpt lat="46.797081548720598" lon="15.888741435483098">
        <ele>249.1187744140625</ele>
        <time>2010-10-10T13:15:33Z</time>
      </trkpt>
      <trkpt lat="46.797027736902237" lon="15.888772280886769">
        <ele>249.5994873046875</ele>
        <time>2010-10-10T13:15:38Z</time>
      </trkpt>
      <trkpt lat="46.796974092721939" lon="15.888798180967569">
        <ele>249.5994873046875</ele>
        <time>2010-10-10T13:15:42Z</time>
      </trkpt>
      <trkpt lat="46.796767981722951" lon="15.889042764902115">
        <ele>250.0802001953125</ele>
        <time>2010-10-10T13:16:04Z</time>
      </trkpt>
      <trkpt lat="46.79669514298439" lon="15.889222892001271">
        <ele>249.5994873046875</ele>
        <time>2010-10-10T13:16:17Z</time>
      </trkpt>
      <trkpt lat="46.796625489369035" lon="15.889506954699755">
        <ele>250.0802001953125</ele>
        <time>2010-10-10T13:16:37Z</time>
      </trkpt>
      <trkpt lat="46.796613335609436" lon="15.889534447342157">
        <ele>249.5994873046875</ele>
        <time>2010-10-10T13:16:39Z</time>
      </trkpt>
      <trkpt lat="46.796528762206435" lon="15.889709796756506">
        <ele>249.1187744140625</ele>
        <time>2010-10-10T13:16:53Z</time>
      </trkpt>
      <trkpt lat="46.796356346458197" lon="15.889838542789221">
        <ele>249.5994873046875</ele>
        <time>2010-10-10T13:17:13Z</time>
      </trkpt>
      <trkpt lat="46.796143278479576" lon="15.889950776472688">
        <ele>249.5994873046875</ele>
        <time>2010-10-10T13:17:33Z</time>
      </trkpt>
      <trkpt lat="46.795942867174745" lon="15.890115397050977">
        <ele>249.5994873046875</ele>
        <time>2010-10-10T13:17:54Z</time>
      </trkpt>
      <trkpt lat="46.795777827501297" lon="15.890237856656313">
        <ele>249.1187744140625</ele>
        <time>2010-10-10T13:18:12Z</time>
      </trkpt>
      <trkpt lat="46.795685794204473" lon="15.890287393704057">
        <ele>249.1187744140625</ele>
        <time>2010-10-10T13:18:20Z</time>
      </trkpt>
      <trkpt lat="46.795452861115336" lon="15.890440195798874">
        <ele>249.1187744140625</ele>
        <time>2010-10-10T13:18:40Z</time>
      </trkpt>
      <trkpt lat="46.795254042372108" lon="15.890703639015555">
        <ele>248.1575927734375</ele>
        <time>2010-10-10T13:19:02Z</time>
      </trkpt>
      <trkpt lat="46.795053463429213" lon="15.890954760834575">
        <ele>249.1187744140625</ele>
        <time>2010-10-10T13:19:25Z</time>
      </trkpt>
      <trkpt lat="46.795016834512353" lon="15.891117788851261">
        <ele>249.1187744140625</ele>
        <time>2010-10-10T13:19:40Z</time>
      </trkpt>
      <trkpt lat="46.794966626912355" lon="15.891291629523039">
        <ele>249.1187744140625</ele>
        <time>2010-10-10T13:19:56Z</time>
      </trkpt>
      <trkpt lat="46.794793037697673" lon="15.891392296180129">
        <ele>249.1187744140625</ele>
        <time>2010-10-10T13:20:14Z</time>
      </trkpt>
      <trkpt lat="46.794621292501688" lon="15.891410820186138">
        <ele>248.63818359375</ele>
        <time>2010-10-10T13:20:32Z</time>
      </trkpt>
      <trkpt lat="46.794566391035914" lon="15.891477791592479">
        <ele>249.1187744140625</ele>
        <time>2010-10-10T13:20:40Z</time>
      </trkpt>
      <trkpt lat="46.79451048374176" lon="15.891844667494297">
        <ele>249.5994873046875</ele>
        <time>2010-10-10T13:21:03Z</time>
      </trkpt>
      <trkpt lat="46.794459437951446" lon="15.89217709377408">
        <ele>250.560791015625</ele>
        <time>2010-10-10T13:21:23Z</time>
      </trkpt>
      <trkpt lat="46.794398836791515" lon="15.892588226124644">
        <ele>250.560791015625</ele>
        <time>2010-10-10T13:21:49Z</time>
      </trkpt>
      <trkpt lat="46.794347874820232" lon="15.892956694588065">
        <ele>251.5220947265625</ele>
        <time>2010-10-10T13:22:12Z</time>
      </trkpt>
      <trkpt lat="46.794273024424911" lon="15.89339473284781">
        <ele>251.0413818359375</ele>
        <time>2010-10-10T13:22:40Z</time>
      </trkpt>
      <trkpt lat="46.794204628095031" lon="15.893689021468163">
        <ele>251.5220947265625</ele>
        <time>2010-10-10T13:23:01Z</time>
      </trkpt>
      <trkpt lat="46.794153582304716" lon="15.893719783052802">
        <ele>252.4833984375</ele>
        <time>2010-10-10T13:23:07Z</time>
      </trkpt>
      <trkpt lat="46.793921235948801" lon="15.893726320937276">
        <ele>252.9639892578125</ele>
        <time>2010-10-10T13:23:29Z</time>
      </trkpt>
      <trkpt lat="46.793671958148479" lon="15.893758842721581">
        <ele>252.9639892578125</ele>
        <time>2010-10-10T13:23:52Z</time>
      </trkpt>
      <trkpt lat="46.793445060029626" lon="15.89383746497333">
        <ele>253.4447021484375</ele>
        <time>2010-10-10T13:24:14Z</time>
      </trkpt>
      <trkpt lat="46.793248169124126" lon="15.893952297046781">
        <ele>253.4447021484375</ele>
        <time>2010-10-10T13:24:35Z</time>
      </trkpt>
      <trkpt lat="46.793105760589242" lon="15.89409545995295">
        <ele>252.9639892578125</ele>
        <time>2010-10-10T13:24:55Z</time>
      </trkpt>
      <trkpt lat="46.79300844669342" lon="15.89420098811388">
        <ele>253.9254150390625</ele>
        <time>2010-10-10T13:25:12Z</time>
      </trkpt>
      <trkpt lat="46.792903756722808" lon="15.894312132149935">
        <ele>252.9639892578125</ele>
        <time>2010-10-10T13:25:28Z</time>
      </trkpt>
      <trkpt lat="46.792730167508125" lon="15.894457725808024">
        <ele>252.9639892578125</ele>
        <time>2010-10-10T13:25:48Z</time>
      </trkpt>
      <trkpt lat="46.792552890256047" lon="15.894582364708185">
        <ele>253.9254150390625</ele>
        <time>2010-10-10T13:26:09Z</time>
      </trkpt>
      <trkpt lat="46.792471250519156" lon="15.894623855128884">
        <ele>253.4447021484375</ele>
        <time>2010-10-10T13:26:26Z</time>
      </trkpt>
      <trkpt lat="46.79223295301199" lon="15.894673643633723">
        <ele>252.9639892578125</ele>
        <time>2010-10-10T13:26:49Z</time>
      </trkpt>
      <trkpt lat="46.792095238342881" lon="15.89470574632287">
        <ele>252.4833984375</ele>
        <time>2010-10-10T13:27:08Z</time>
      </trkpt>
      <trkpt lat="46.791844787076116" lon="15.894681271165609">
        <ele>252.4833984375</ele>
        <time>2010-10-10T13:27:31Z</time>
      </trkpt>
      <trkpt lat="46.791753591969609" lon="15.894638439640403">
        <ele>252.4833984375</ele>
        <time>2010-10-10T13:27:45Z</time>
      </trkpt>
      <trkpt lat="46.791635826230049" lon="15.894554536789656">
        <ele>252.4833984375</ele>
        <time>2010-10-10T13:27:58Z</time>
      </trkpt>
      <trkpt lat="46.791504146531224" lon="15.894465940073133">
        <ele>252.0028076171875</ele>
        <time>2010-10-10T13:28:17Z</time>
      </trkpt>
      <trkpt lat="46.791483527049422" lon="15.89444724842906">
        <ele>252.0028076171875</ele>
        <time>2010-10-10T13:28:30Z</time>
      </trkpt>
      <trkpt lat="46.791354026645422" lon="15.894319927319884">
        <ele>251.5220947265625</ele>
        <time>2010-10-10T13:28:46Z</time>
      </trkpt>
      <trkpt lat="46.791161997243762" lon="15.894135190173984">
        <ele>251.5220947265625</ele>
        <time>2010-10-10T13:29:07Z</time>
      </trkpt>
      <trkpt lat="46.790939373895526" lon="15.89392002671957">
        <ele>250.560791015625</ele>
        <time>2010-10-10T13:29:31Z</time>
      </trkpt>
      <trkpt lat="46.790712475776672" lon="15.89370695874095">
        <ele>249.5994873046875</ele>
        <time>2010-10-10T13:29:55Z</time>
      </trkpt>
      <trkpt lat="46.790523966774344" lon="15.8935437630862">
        <ele>249.5994873046875</ele>
        <time>2010-10-10T13:30:17Z</time>
      </trkpt>
      <trkpt lat="46.790379965677857" lon="15.893439073115587">
        <ele>249.1187744140625</ele>
        <time>2010-10-10T13:30:33Z</time>
      </trkpt>
      <trkpt lat="46.790167735889554" lon="15.893261125311255">
        <ele>249.1187744140625</ele>
        <time>2010-10-10T13:30:54Z</time>
      </trkpt>
      <trkpt lat="46.789963133633137" lon="15.893098935484886">
        <ele>248.63818359375</ele>
        <time>2010-10-10T13:31:15Z</time>
      </trkpt>
      <trkpt lat="46.789740594103932" lon="15.892907660454512">
        <ele>248.63818359375</ele>
        <time>2010-10-10T13:31:38Z</time>
      </trkpt>
      <trkpt lat="46.789503134787083" lon="15.892727198079228">
        <ele>247.6767578125</ele>
        <time>2010-10-10T13:32:02Z</time>
      </trkpt>
      <trkpt lat="46.789282439276576" lon="15.892542125657201">
        <ele>248.1575927734375</ele>
        <time>2010-10-10T13:32:25Z</time>
      </trkpt>
      <trkpt lat="46.789206834509969" lon="15.892576826736331">
        <ele>249.5994873046875</ele>
        <time>2010-10-10T13:32:40Z</time>
      </trkpt>
      <trkpt lat="46.789126368239522" lon="15.892841694876552">
        <ele>249.1187744140625</ele>
        <time>2010-10-10T13:33:01Z</time>
      </trkpt>
      <trkpt lat="46.788855465129018" lon="15.892676822841167">
        <ele>248.63818359375</ele>
        <time>2010-10-10T13:33:26Z</time>
      </trkpt>
      <trkpt lat="46.788637535646558" lon="15.89243114925921">
        <ele>248.63818359375</ele>
        <time>2010-10-10T13:33:50Z</time>
      </trkpt>
      <trkpt lat="46.788489678874612" lon="15.89205983094871">
        <ele>247.196044921875</ele>
        <time>2010-10-10T13:34:15Z</time>
      </trkpt>
      <trkpt lat="46.788292620331049" lon="15.891866963356733">
        <ele>247.196044921875</ele>
        <time>2010-10-10T13:34:39Z</time>
      </trkpt>
      <trkpt lat="46.788101177662611" lon="15.892166784033179">
        <ele>246.7154541015625</ele>
        <time>2010-10-10T13:35:03Z</time>
      </trkpt>
      <trkpt lat="46.787942089140415" lon="15.892580933868885">
        <ele>247.196044921875</ele>
        <time>2010-10-10T13:35:30Z</time>
      </trkpt>
      <trkpt lat="46.787857431918383" lon="15.89288804680109">
        <ele>247.196044921875</ele>
        <time>2010-10-10T13:35:55Z</time>
      </trkpt>
      <trkpt lat="46.787863969802856" lon="15.893233129754663">
        <ele>247.196044921875</ele>
        <time>2010-10-10T13:36:16Z</time>
      </trkpt>
      <trkpt lat="46.78784167394042" lon="15.893678460270166">
        <ele>247.6767578125</ele>
        <time>2010-10-10T13:36:43Z</time>
      </trkpt>
      <trkpt lat="46.787805128842592" lon="15.894069978967309">
        <ele>248.1575927734375</ele>
        <time>2010-10-10T13:37:08Z</time>
      </trkpt>
      <trkpt lat="46.787757268175483" lon="15.894304169341922">
        <ele>249.5994873046875</ele>
        <time>2010-10-10T13:37:27Z</time>
      </trkpt>
      <trkpt lat="46.787739330902696" lon="15.894432161003351">
        <ele>249.1187744140625</ele>
        <time>2010-10-10T13:37:36Z</time>
      </trkpt>
      <trkpt lat="46.787677723914385" lon="15.894649168476462">
        <ele>250.0802001953125</ele>
        <time>2010-10-10T13:37:54Z</time>
      </trkpt>
      <trkpt lat="46.787553252652287" lon="15.894712032750249">
        <ele>250.0802001953125</ele>
        <time>2010-10-10T13:38:10Z</time>
      </trkpt>
      <trkpt lat="46.787515617907047" lon="15.894668446853757">
        <ele>250.0802001953125</ele>
        <time>2010-10-10T13:38:23Z</time>
      </trkpt>
      <trkpt lat="46.787535650655627" lon="15.894648162648082">
        <ele>250.560791015625</ele>
        <time>2010-10-10T13:38:44Z</time>
      </trkpt>
      <trkpt lat="46.787533136084676" lon="15.894639948382974">
        <ele>251.5220947265625</ele>
        <time>2010-10-10T13:39:12Z</time>
      </trkpt>
      <trkpt lat="46.787509834393859" lon="15.89463634416461">
        <ele>252.0028076171875</ele>
        <time>2010-10-10T13:39:31Z</time>
      </trkpt>
      <trkpt lat="46.787504637613893" lon="15.894644474610686">
        <ele>250.560791015625</ele>
        <time>2010-10-10T13:39:39Z</time>
      </trkpt>
      <trkpt lat="46.787463650107384" lon="15.894657298922539">
        <ele>250.560791015625</ele>
        <time>2010-10-10T13:40:07Z</time>
      </trkpt>
      <trkpt lat="46.787529196590185" lon="15.894721923395991">
        <ele>249.5994873046875</ele>
        <time>2010-10-10T13:40:49Z</time>
      </trkpt>
      <trkpt lat="46.787569681182504" lon="15.894753439351916">
        <ele>250.0802001953125</ele>
        <time>2010-10-10T13:41:24Z</time>
      </trkpt>
      <trkpt lat="46.787578817456961" lon="15.894753271713853">
        <ele>250.0802001953125</ele>
        <time>2010-10-10T13:41:45Z</time>
      </trkpt>
      <trkpt lat="46.787611423060298" lon="15.894796689972281">
        <ele>250.560791015625</ele>
        <time>2010-10-10T13:42:21Z</time>
      </trkpt>
      <trkpt lat="46.787574626505375" lon="15.894733658060431">
        <ele>249.5994873046875</ele>
        <time>2010-10-10T13:42:47Z</time>
      </trkpt>
      <trkpt lat="46.787636568769813" lon="15.894704237580299">
        <ele>248.63818359375</ele>
        <time>2010-10-10T13:43:12Z</time>
      </trkpt>
      <trkpt lat="46.787605220451951" lon="15.894753187894821">
        <ele>249.1187744140625</ele>
        <time>2010-10-10T13:43:44Z</time>
      </trkpt>
      <trkpt lat="46.787467170506716" lon="15.894701471552253">
        <ele>249.1187744140625</ele>
        <time>2010-10-10T13:44:07Z</time>
      </trkpt>
      <trkpt lat="46.787426434457302" lon="15.894696861505508">
        <ele>248.63818359375</ele>
        <time>2010-10-10T13:44:11Z</time>
      </trkpt>
      <trkpt lat="46.787404054775834" lon="15.894644726067781">
        <ele>249.1187744140625</ele>
        <time>2010-10-10T13:44:23Z</time>
      </trkpt>
    </trkseg>
  </trk>

</gpx>